<?xml version="1.0" encoding="UTF-8" standalone="no" ?>
<gpx xmlns="http://www.topografix.com/GPX/1/1" xmlns:xsi="http://www.w3.org/2001/XMLSchema-instance" xsi:schemaLocation="http://www.topografix.com/GPX/1/1 http://www.topografix.com/GPX/1/1/gpx.xsd" version="1.1" creator="VisuGPX - https://www.visugpx.com">
  <metadata>
    <name>Abos (64)</name>
    <desc><![CDATA[Randonnée dans les bois d\'acacias, de chêne et de hêtres sur les coteaux d\'Abos près de Pau.
Nombreux sentiers non balisés et empruntés souvent par les VTT.]]></desc>
  </metadata>
  <trk>
    <name><![CDATA[Tracé actuel: 15 MAI 2012 14:16]]></name>
    <trkseg>
      <trkpt lat="43.34935" lon="-0.55287">
        <ele>120.3</ele>
        <time>2012-05-15T12:16:58Z</time>
      </trkpt>
      <trkpt lat="43.34938" lon="-0.55268">
        <ele>118.86</ele>
        <time>2012-05-15T12:17:24Z</time>
      </trkpt>
      <trkpt lat="43.34943" lon="-0.55257">
        <ele>118.86</ele>
        <time>2012-05-15T12:17:33Z</time>
      </trkpt>
      <trkpt lat="43.34948" lon="-0.55244">
        <ele>117.42</ele>
        <time>2012-05-15T12:17:43Z</time>
      </trkpt>
      <trkpt lat="43.34951" lon="-0.55233">
        <ele>117.42</ele>
        <time>2012-05-15T12:17:53Z</time>
      </trkpt>
      <trkpt lat="43.34956" lon="-0.55219">
        <ele>117.42</ele>
        <time>2012-05-15T12:18:03Z</time>
      </trkpt>
      <trkpt lat="43.34963" lon="-0.55206">
        <ele>116.94</ele>
        <time>2012-05-15T12:18:13Z</time>
      </trkpt>
      <trkpt lat="43.34973" lon="-0.55202">
        <ele>116.94</ele>
        <time>2012-05-15T12:18:22Z</time>
      </trkpt>
      <trkpt lat="43.3498" lon="-0.55207">
        <ele>116.94</ele>
        <time>2012-05-15T12:18:32Z</time>
      </trkpt>
      <trkpt lat="43.34989" lon="-0.55213">
        <ele>116.94</ele>
        <time>2012-05-15T12:18:40Z</time>
      </trkpt>
      <trkpt lat="43.34999" lon="-0.55219">
        <ele>116.46</ele>
        <time>2012-05-15T12:18:49Z</time>
      </trkpt>
      <trkpt lat="43.3501" lon="-0.55225">
        <ele>116.46</ele>
        <time>2012-05-15T12:18:58Z</time>
      </trkpt>
      <trkpt lat="43.3502" lon="-0.55234">
        <ele>117.42</ele>
        <time>2012-05-15T12:19:07Z</time>
      </trkpt>
      <trkpt lat="43.3503" lon="-0.5524">
        <ele>116.94</ele>
        <time>2012-05-15T12:19:16Z</time>
      </trkpt>
      <trkpt lat="43.35039" lon="-0.55248">
        <ele>116.94</ele>
        <time>2012-05-15T12:19:24Z</time>
      </trkpt>
      <trkpt lat="43.35047" lon="-0.55257">
        <ele>115.98</ele>
        <time>2012-05-15T12:19:33Z</time>
      </trkpt>
      <trkpt lat="43.35056" lon="-0.55265">
        <ele>115.98</ele>
        <time>2012-05-15T12:19:41Z</time>
      </trkpt>
      <trkpt lat="43.35064" lon="-0.55272">
        <ele>115.98</ele>
        <time>2012-05-15T12:19:49Z</time>
      </trkpt>
      <trkpt lat="43.35072" lon="-0.5528">
        <ele>116.94</ele>
        <time>2012-05-15T12:19:57Z</time>
      </trkpt>
      <trkpt lat="43.35081" lon="-0.55289">
        <ele>117.42</ele>
        <time>2012-05-15T12:20:05Z</time>
      </trkpt>
      <trkpt lat="43.3509" lon="-0.55298">
        <ele>115.98</ele>
        <time>2012-05-15T12:20:14Z</time>
      </trkpt>
      <trkpt lat="43.35099" lon="-0.55305">
        <ele>116.94</ele>
        <time>2012-05-15T12:20:22Z</time>
      </trkpt>
      <trkpt lat="43.35107" lon="-0.55313">
        <ele>115.98</ele>
        <time>2012-05-15T12:20:30Z</time>
      </trkpt>
      <trkpt lat="43.35116" lon="-0.55321">
        <ele>116.46</ele>
        <time>2012-05-15T12:20:38Z</time>
      </trkpt>
      <trkpt lat="43.35124" lon="-0.55328">
        <ele>116.94</ele>
        <time>2012-05-15T12:20:46Z</time>
      </trkpt>
      <trkpt lat="43.35133" lon="-0.55337">
        <ele>115.98</ele>
        <time>2012-05-15T12:20:54Z</time>
      </trkpt>
      <trkpt lat="43.35141" lon="-0.55345">
        <ele>116.94</ele>
        <time>2012-05-15T12:21:02Z</time>
      </trkpt>
      <trkpt lat="43.3515" lon="-0.55353">
        <ele>117.42</ele>
        <time>2012-05-15T12:21:11Z</time>
      </trkpt>
      <trkpt lat="43.35159" lon="-0.55363">
        <ele>116.46</ele>
        <time>2012-05-15T12:21:20Z</time>
      </trkpt>
      <trkpt lat="43.35169" lon="-0.55371">
        <ele>116.94</ele>
        <time>2012-05-15T12:21:29Z</time>
      </trkpt>
      <trkpt lat="43.35179" lon="-0.55378">
        <ele>116.46</ele>
        <time>2012-05-15T12:21:38Z</time>
      </trkpt>
      <trkpt lat="43.35189" lon="-0.55381">
        <ele>116.46</ele>
        <time>2012-05-15T12:21:46Z</time>
      </trkpt>
      <trkpt lat="43.35199" lon="-0.55383">
        <ele>117.42</ele>
        <time>2012-05-15T12:21:54Z</time>
      </trkpt>
      <trkpt lat="43.35208" lon="-0.5538">
        <ele>117.42</ele>
        <time>2012-05-15T12:22:02Z</time>
      </trkpt>
      <trkpt lat="43.3522" lon="-0.55375">
        <ele>117.9</ele>
        <time>2012-05-15T12:22:10Z</time>
      </trkpt>
      <trkpt lat="43.35228" lon="-0.55367">
        <ele>118.38</ele>
        <time>2012-05-15T12:22:17Z</time>
      </trkpt>
      <trkpt lat="43.35231" lon="-0.55353">
        <ele>118.38</ele>
        <time>2012-05-15T12:22:25Z</time>
      </trkpt>
      <trkpt lat="43.35226" lon="-0.55337">
        <ele>118.86</ele>
        <time>2012-05-15T12:22:33Z</time>
      </trkpt>
      <trkpt lat="43.35222" lon="-0.55323">
        <ele>119.82</ele>
        <time>2012-05-15T12:22:41Z</time>
      </trkpt>
      <trkpt lat="43.3522" lon="-0.55311">
        <ele>119.34</ele>
        <time>2012-05-15T12:22:49Z</time>
      </trkpt>
      <trkpt lat="43.35219" lon="-0.55298">
        <ele>120.3</ele>
        <time>2012-05-15T12:22:57Z</time>
      </trkpt>
      <trkpt lat="43.35219" lon="-0.55286">
        <ele>120.3</ele>
        <time>2012-05-15T12:23:05Z</time>
      </trkpt>
      <trkpt lat="43.35219" lon="-0.55272">
        <ele>120.3</ele>
        <time>2012-05-15T12:23:13Z</time>
      </trkpt>
      <trkpt lat="43.3522" lon="-0.55259">
        <ele>120.3</ele>
        <time>2012-05-15T12:23:22Z</time>
      </trkpt>
      <trkpt lat="43.35219" lon="-0.55243">
        <ele>120.3</ele>
        <time>2012-05-15T12:23:32Z</time>
      </trkpt>
      <trkpt lat="43.35216" lon="-0.5523">
        <ele>120.78</ele>
        <time>2012-05-15T12:23:41Z</time>
      </trkpt>
      <trkpt lat="43.35211" lon="-0.55219">
        <ele>121.26</ele>
        <time>2012-05-15T12:23:49Z</time>
      </trkpt>
      <trkpt lat="43.35205" lon="-0.55208">
        <ele>121.26</ele>
        <time>2012-05-15T12:23:57Z</time>
      </trkpt>
      <trkpt lat="43.35199" lon="-0.55196">
        <ele>120.78</ele>
        <time>2012-05-15T12:24:05Z</time>
      </trkpt>
      <trkpt lat="43.35192" lon="-0.55186">
        <ele>122.22</ele>
        <time>2012-05-15T12:24:14Z</time>
      </trkpt>
      <trkpt lat="43.35186" lon="-0.55176">
        <ele>122.71</ele>
        <time>2012-05-15T12:24:22Z</time>
      </trkpt>
      <trkpt lat="43.35182" lon="-0.55164">
        <ele>122.22</ele>
        <time>2012-05-15T12:24:31Z</time>
      </trkpt>
      <trkpt lat="43.35177" lon="-0.55154">
        <ele>123.67</ele>
        <time>2012-05-15T12:24:40Z</time>
      </trkpt>
      <trkpt lat="43.35171" lon="-0.55144">
        <ele>123.19</ele>
        <time>2012-05-15T12:24:49Z</time>
      </trkpt>
      <trkpt lat="43.35162" lon="-0.5513">
        <ele>123.19</ele>
        <time>2012-05-15T12:24:57Z</time>
      </trkpt>
      <trkpt lat="43.35154" lon="-0.55124">
        <ele>123.19</ele>
        <time>2012-05-15T12:25:03Z</time>
      </trkpt>
      <trkpt lat="43.35146" lon="-0.55119">
        <ele>123.67</ele>
        <time>2012-05-15T12:25:12Z</time>
      </trkpt>
      <trkpt lat="43.35132" lon="-0.55114">
        <ele>124.15</ele>
        <time>2012-05-15T12:25:23Z</time>
      </trkpt>
      <trkpt lat="43.35121" lon="-0.55108">
        <ele>123.67</ele>
        <time>2012-05-15T12:25:33Z</time>
      </trkpt>
      <trkpt lat="43.35111" lon="-0.55105">
        <ele>123.67</ele>
        <time>2012-05-15T12:25:41Z</time>
      </trkpt>
      <trkpt lat="43.35103" lon="-0.55099">
        <ele>123.67</ele>
        <time>2012-05-15T12:25:50Z</time>
      </trkpt>
      <trkpt lat="43.35093" lon="-0.55094">
        <ele>123.67</ele>
        <time>2012-05-15T12:25:58Z</time>
      </trkpt>
      <trkpt lat="43.3508" lon="-0.55088">
        <ele>123.19</ele>
        <time>2012-05-15T12:26:06Z</time>
      </trkpt>
      <trkpt lat="43.3507" lon="-0.55084">
        <ele>122.22</ele>
        <time>2012-05-15T12:26:16Z</time>
      </trkpt>
      <trkpt lat="43.3506" lon="-0.55081">
        <ele>122.71</ele>
        <time>2012-05-15T12:26:26Z</time>
      </trkpt>
      <trkpt lat="43.35048" lon="-0.55072">
        <ele>122.22</ele>
        <time>2012-05-15T12:26:35Z</time>
      </trkpt>
      <trkpt lat="43.35038" lon="-0.55067">
        <ele>122.22</ele>
        <time>2012-05-15T12:26:44Z</time>
      </trkpt>
      <trkpt lat="43.35028" lon="-0.55056">
        <ele>122.22</ele>
        <time>2012-05-15T12:26:53Z</time>
      </trkpt>
      <trkpt lat="43.35019" lon="-0.55047">
        <ele>121.26</ele>
        <time>2012-05-15T12:27:03Z</time>
      </trkpt>
      <trkpt lat="43.35012" lon="-0.55037">
        <ele>122.22</ele>
        <time>2012-05-15T12:27:11Z</time>
      </trkpt>
      <trkpt lat="43.35005" lon="-0.55026">
        <ele>121.74</ele>
        <time>2012-05-15T12:27:19Z</time>
      </trkpt>
      <trkpt lat="43.34996" lon="-0.55014">
        <ele>121.26</ele>
        <time>2012-05-15T12:27:29Z</time>
      </trkpt>
      <trkpt lat="43.3499" lon="-0.55005">
        <ele>120.78</ele>
        <time>2012-05-15T12:27:39Z</time>
      </trkpt>
      <trkpt lat="43.34984" lon="-0.54995">
        <ele>121.26</ele>
        <time>2012-05-15T12:27:47Z</time>
      </trkpt>
      <trkpt lat="43.34978" lon="-0.54985">
        <ele>120.3</ele>
        <time>2012-05-15T12:27:55Z</time>
      </trkpt>
      <trkpt lat="43.34974" lon="-0.54974">
        <ele>121.26</ele>
        <time>2012-05-15T12:28:04Z</time>
      </trkpt>
      <trkpt lat="43.34965" lon="-0.54956">
        <ele>121.74</ele>
        <time>2012-05-15T12:28:19Z</time>
      </trkpt>
      <trkpt lat="43.34958" lon="-0.54937">
        <ele>122.22</ele>
        <time>2012-05-15T12:28:29Z</time>
      </trkpt>
      <trkpt lat="43.34953" lon="-0.54927">
        <ele>124.15</ele>
        <time>2012-05-15T12:28:39Z</time>
      </trkpt>
      <trkpt lat="43.34947" lon="-0.54917">
        <ele>124.15</ele>
        <time>2012-05-15T12:28:52Z</time>
      </trkpt>
      <trkpt lat="43.34935" lon="-0.54907">
        <ele>124.15</ele>
        <time>2012-05-15T12:29:02Z</time>
      </trkpt>
      <trkpt lat="43.34922" lon="-0.54904">
        <ele>123.19</ele>
        <time>2012-05-15T12:29:10Z</time>
      </trkpt>
      <trkpt lat="43.34907" lon="-0.54896">
        <ele>124.15</ele>
        <time>2012-05-15T12:29:18Z</time>
      </trkpt>
      <trkpt lat="43.34897" lon="-0.54892">
        <ele>124.15</ele>
        <time>2012-05-15T12:29:25Z</time>
      </trkpt>
      <trkpt lat="43.34888" lon="-0.54888">
        <ele>123.67</ele>
        <time>2012-05-15T12:29:32Z</time>
      </trkpt>
      <trkpt lat="43.34877" lon="-0.54889">
        <ele>123.19</ele>
        <time>2012-05-15T12:29:41Z</time>
      </trkpt>
      <trkpt lat="43.34866" lon="-0.54888">
        <ele>123.19</ele>
        <time>2012-05-15T12:29:51Z</time>
      </trkpt>
      <trkpt lat="43.34853" lon="-0.54885">
        <ele>123.19</ele>
        <time>2012-05-15T12:30:02Z</time>
      </trkpt>
      <trkpt lat="43.34843" lon="-0.54881">
        <ele>123.19</ele>
        <time>2012-05-15T12:30:12Z</time>
      </trkpt>
      <trkpt lat="43.34837" lon="-0.54871">
        <ele>122.22</ele>
        <time>2012-05-15T12:30:20Z</time>
      </trkpt>
      <trkpt lat="43.34831" lon="-0.5486">
        <ele>122.22</ele>
        <time>2012-05-15T12:30:29Z</time>
      </trkpt>
      <trkpt lat="43.34825" lon="-0.54844">
        <ele>121.74</ele>
        <time>2012-05-15T12:30:39Z</time>
      </trkpt>
      <trkpt lat="43.34826" lon="-0.54825">
        <ele>121.74</ele>
        <time>2012-05-15T12:31:42Z</time>
      </trkpt>
      <trkpt lat="43.34829" lon="-0.54811">
        <ele>122.71</ele>
        <time>2012-05-15T12:31:50Z</time>
      </trkpt>
      <trkpt lat="43.34831" lon="-0.54797">
        <ele>122.71</ele>
        <time>2012-05-15T12:32:00Z</time>
      </trkpt>
      <trkpt lat="43.34845" lon="-0.54783">
        <ele>124.15</ele>
        <time>2012-05-15T12:32:11Z</time>
      </trkpt>
      <trkpt lat="43.34859" lon="-0.54777">
        <ele>124.63</ele>
        <time>2012-05-15T12:32:22Z</time>
      </trkpt>
      <trkpt lat="43.34867" lon="-0.54773">
        <ele>126.07</ele>
        <time>2012-05-15T12:32:31Z</time>
      </trkpt>
      <trkpt lat="43.34875" lon="-0.54766">
        <ele>127.03</ele>
        <time>2012-05-15T12:32:41Z</time>
      </trkpt>
      <trkpt lat="43.34883" lon="-0.54758">
        <ele>128.47</ele>
        <time>2012-05-15T12:32:51Z</time>
      </trkpt>
      <trkpt lat="43.3489" lon="-0.54749">
        <ele>129.43</ele>
        <time>2012-05-15T12:33:01Z</time>
      </trkpt>
      <trkpt lat="43.34896" lon="-0.54738">
        <ele>130.4</ele>
        <time>2012-05-15T12:33:12Z</time>
      </trkpt>
      <trkpt lat="43.34902" lon="-0.54723">
        <ele>131.36</ele>
        <time>2012-05-15T12:33:22Z</time>
      </trkpt>
      <trkpt lat="43.34907" lon="-0.54709">
        <ele>131.36</ele>
        <time>2012-05-15T12:33:32Z</time>
      </trkpt>
      <trkpt lat="43.34912" lon="-0.54696">
        <ele>132.8</ele>
        <time>2012-05-15T12:33:42Z</time>
      </trkpt>
      <trkpt lat="43.34917" lon="-0.54683">
        <ele>132.8</ele>
        <time>2012-05-15T12:33:52Z</time>
      </trkpt>
      <trkpt lat="43.34921" lon="-0.54669">
        <ele>133.28</ele>
        <time>2012-05-15T12:34:02Z</time>
      </trkpt>
      <trkpt lat="43.34926" lon="-0.54656">
        <ele>134.24</ele>
        <time>2012-05-15T12:34:11Z</time>
      </trkpt>
      <trkpt lat="43.3493" lon="-0.54644">
        <ele>135.2</ele>
        <time>2012-05-15T12:34:21Z</time>
      </trkpt>
      <trkpt lat="43.34937" lon="-0.54636">
        <ele>135.68</ele>
        <time>2012-05-15T12:34:30Z</time>
      </trkpt>
      <trkpt lat="43.34948" lon="-0.54633">
        <ele>137.13</ele>
        <time>2012-05-15T12:34:40Z</time>
      </trkpt>
      <trkpt lat="43.34958" lon="-0.54631">
        <ele>139.05</ele>
        <time>2012-05-15T12:34:50Z</time>
      </trkpt>
      <trkpt lat="43.34967" lon="-0.54632">
        <ele>139.53</ele>
        <time>2012-05-15T12:34:59Z</time>
      </trkpt>
      <trkpt lat="43.34977" lon="-0.54634">
        <ele>141.45</ele>
        <time>2012-05-15T12:35:10Z</time>
      </trkpt>
      <trkpt lat="43.34988" lon="-0.54636">
        <ele>142.41</ele>
        <time>2012-05-15T12:35:20Z</time>
      </trkpt>
      <trkpt lat="43.34998" lon="-0.54639">
        <ele>143.85</ele>
        <time>2012-05-15T12:35:31Z</time>
      </trkpt>
      <trkpt lat="43.35007" lon="-0.54641">
        <ele>144.34</ele>
        <time>2012-05-15T12:35:41Z</time>
      </trkpt>
      <trkpt lat="43.35018" lon="-0.54644">
        <ele>145.3</ele>
        <time>2012-05-15T12:35:52Z</time>
      </trkpt>
      <trkpt lat="43.35028" lon="-0.54646">
        <ele>147.7</ele>
        <time>2012-05-15T12:36:02Z</time>
      </trkpt>
      <trkpt lat="43.35037" lon="-0.54648">
        <ele>148.66</ele>
        <time>2012-05-15T12:36:12Z</time>
      </trkpt>
      <trkpt lat="43.35047" lon="-0.54648">
        <ele>149.62</ele>
        <time>2012-05-15T12:36:22Z</time>
      </trkpt>
      <trkpt lat="43.35059" lon="-0.5465">
        <ele>150.1</ele>
        <time>2012-05-15T12:36:32Z</time>
      </trkpt>
      <trkpt lat="43.35068" lon="-0.54651">
        <ele>151.54</ele>
        <time>2012-05-15T12:36:42Z</time>
      </trkpt>
      <trkpt lat="43.35077" lon="-0.54653">
        <ele>152.99</ele>
        <time>2012-05-15T12:36:50Z</time>
      </trkpt>
      <trkpt lat="43.35086" lon="-0.54657">
        <ele>154.43</ele>
        <time>2012-05-15T12:37:01Z</time>
      </trkpt>
      <trkpt lat="43.35096" lon="-0.54663">
        <ele>155.87</ele>
        <time>2012-05-15T12:37:13Z</time>
      </trkpt>
      <trkpt lat="43.351" lon="-0.54658">
        <ele>155.39</ele>
        <time>2012-05-15T12:37:22Z</time>
      </trkpt>
      <trkpt lat="43.35106" lon="-0.54647">
        <ele>156.83</ele>
        <time>2012-05-15T12:37:30Z</time>
      </trkpt>
      <trkpt lat="43.35117" lon="-0.54635">
        <ele>157.79</ele>
        <time>2012-05-15T12:37:43Z</time>
      </trkpt>
      <trkpt lat="43.35129" lon="-0.54628">
        <ele>158.27</ele>
        <time>2012-05-15T12:37:54Z</time>
      </trkpt>
      <trkpt lat="43.35144" lon="-0.54627">
        <ele>159.24</ele>
        <time>2012-05-15T12:38:06Z</time>
      </trkpt>
      <trkpt lat="43.35151" lon="-0.5462">
        <ele>160.2</ele>
        <time>2012-05-15T12:38:15Z</time>
      </trkpt>
      <trkpt lat="43.35158" lon="-0.54611">
        <ele>160.68</ele>
        <time>2012-05-15T12:38:24Z</time>
      </trkpt>
      <trkpt lat="43.35165" lon="-0.54602">
        <ele>161.16</ele>
        <time>2012-05-15T12:38:31Z</time>
      </trkpt>
      <trkpt lat="43.3517" lon="-0.54589">
        <ele>162.12</ele>
        <time>2012-05-15T12:38:39Z</time>
      </trkpt>
      <trkpt lat="43.35169" lon="-0.54576">
        <ele>163.08</ele>
        <time>2012-05-15T12:38:49Z</time>
      </trkpt>
      <trkpt lat="43.35167" lon="-0.54564">
        <ele>164.52</ele>
        <time>2012-05-15T12:38:56Z</time>
      </trkpt>
      <trkpt lat="43.35169" lon="-0.54552">
        <ele>165</ele>
        <time>2012-05-15T12:39:06Z</time>
      </trkpt>
      <trkpt lat="43.3517" lon="-0.54539">
        <ele>165.96</ele>
        <time>2012-05-15T12:39:15Z</time>
      </trkpt>
      <trkpt lat="43.3517" lon="-0.54526">
        <ele>167.41</ele>
        <time>2012-05-15T12:39:27Z</time>
      </trkpt>
      <trkpt lat="43.35168" lon="-0.54512">
        <ele>168.85</ele>
        <time>2012-05-15T12:39:41Z</time>
      </trkpt>
      <trkpt lat="43.35168" lon="-0.54499">
        <ele>171.25</ele>
        <time>2012-05-15T12:39:53Z</time>
      </trkpt>
      <trkpt lat="43.35166" lon="-0.54485">
        <ele>171.73</ele>
        <time>2012-05-15T12:40:05Z</time>
      </trkpt>
      <trkpt lat="43.35167" lon="-0.54471">
        <ele>173.17</ele>
        <time>2012-05-15T12:40:16Z</time>
      </trkpt>
      <trkpt lat="43.3517" lon="-0.54458">
        <ele>175.1</ele>
        <time>2012-05-15T12:40:26Z</time>
      </trkpt>
      <trkpt lat="43.35173" lon="-0.54447">
        <ele>176.06</ele>
        <time>2012-05-15T12:40:35Z</time>
      </trkpt>
      <trkpt lat="43.35178" lon="-0.54435">
        <ele>176.06</ele>
        <time>2012-05-15T12:40:44Z</time>
      </trkpt>
      <trkpt lat="43.35181" lon="-0.54422">
        <ele>176.54</ele>
        <time>2012-05-15T12:40:52Z</time>
      </trkpt>
      <trkpt lat="43.35184" lon="-0.5441">
        <ele>176.54</ele>
        <time>2012-05-15T12:41:00Z</time>
      </trkpt>
      <trkpt lat="43.35187" lon="-0.54397">
        <ele>176.54</ele>
        <time>2012-05-15T12:41:08Z</time>
      </trkpt>
      <trkpt lat="43.35189" lon="-0.54384">
        <ele>176.06</ele>
        <time>2012-05-15T12:41:16Z</time>
      </trkpt>
      <trkpt lat="43.3519" lon="-0.54371">
        <ele>176.06</ele>
        <time>2012-05-15T12:41:24Z</time>
      </trkpt>
      <trkpt lat="43.35192" lon="-0.54358">
        <ele>175.1</ele>
        <time>2012-05-15T12:41:32Z</time>
      </trkpt>
      <trkpt lat="43.35195" lon="-0.54344">
        <ele>175.1</ele>
        <time>2012-05-15T12:41:40Z</time>
      </trkpt>
      <trkpt lat="43.35199" lon="-0.54333">
        <ele>174.62</ele>
        <time>2012-05-15T12:41:48Z</time>
      </trkpt>
      <trkpt lat="43.35203" lon="-0.54321">
        <ele>174.62</ele>
        <time>2012-05-15T12:41:56Z</time>
      </trkpt>
      <trkpt lat="43.35204" lon="-0.54308">
        <ele>174.62</ele>
        <time>2012-05-15T12:42:04Z</time>
      </trkpt>
      <trkpt lat="43.35201" lon="-0.54296">
        <ele>174.62</ele>
        <time>2012-05-15T12:42:12Z</time>
      </trkpt>
      <trkpt lat="43.35197" lon="-0.54284">
        <ele>175.1</ele>
        <time>2012-05-15T12:42:20Z</time>
      </trkpt>
      <trkpt lat="43.35194" lon="-0.54271">
        <ele>175.1</ele>
        <time>2012-05-15T12:42:28Z</time>
      </trkpt>
      <trkpt lat="43.35191" lon="-0.54258">
        <ele>175.58</ele>
        <time>2012-05-15T12:42:37Z</time>
      </trkpt>
      <trkpt lat="43.3519" lon="-0.54244">
        <ele>175.58</ele>
        <time>2012-05-15T12:42:46Z</time>
      </trkpt>
      <trkpt lat="43.35187" lon="-0.5423">
        <ele>177.02</ele>
        <time>2012-05-15T12:42:55Z</time>
      </trkpt>
      <trkpt lat="43.35184" lon="-0.54218">
        <ele>177.02</ele>
        <time>2012-05-15T12:43:04Z</time>
      </trkpt>
      <trkpt lat="43.35179" lon="-0.54206">
        <ele>177.98</ele>
        <time>2012-05-15T12:43:13Z</time>
      </trkpt>
      <trkpt lat="43.35174" lon="-0.54195">
        <ele>178.46</ele>
        <time>2012-05-15T12:43:22Z</time>
      </trkpt>
      <trkpt lat="43.3517" lon="-0.54182">
        <ele>179.42</ele>
        <time>2012-05-15T12:43:32Z</time>
      </trkpt>
      <trkpt lat="43.35171" lon="-0.54168">
        <ele>180.38</ele>
        <time>2012-05-15T12:43:42Z</time>
      </trkpt>
      <trkpt lat="43.35173" lon="-0.54156">
        <ele>181.83</ele>
        <time>2012-05-15T12:43:52Z</time>
      </trkpt>
      <trkpt lat="43.35176" lon="-0.54143">
        <ele>183.75</ele>
        <time>2012-05-15T12:44:03Z</time>
      </trkpt>
      <trkpt lat="43.35179" lon="-0.54128">
        <ele>185.19</ele>
        <time>2012-05-15T12:44:15Z</time>
      </trkpt>
      <trkpt lat="43.35185" lon="-0.54113">
        <ele>185.67</ele>
        <time>2012-05-15T12:44:25Z</time>
      </trkpt>
      <trkpt lat="43.35191" lon="-0.54101">
        <ele>187.11</ele>
        <time>2012-05-15T12:44:36Z</time>
      </trkpt>
      <trkpt lat="43.35194" lon="-0.54086">
        <ele>189.04</ele>
        <time>2012-05-15T12:44:48Z</time>
      </trkpt>
      <trkpt lat="43.35194" lon="-0.54072">
        <ele>191.44</ele>
        <time>2012-05-15T12:45:01Z</time>
      </trkpt>
      <trkpt lat="43.35192" lon="-0.54062">
        <ele>193.36</ele>
        <time>2012-05-15T12:47:14Z</time>
      </trkpt>
      <trkpt lat="43.35181" lon="-0.54054">
        <ele>192.88</ele>
        <time>2012-05-15T12:51:16Z</time>
      </trkpt>
      <trkpt lat="43.35172" lon="-0.54047">
        <ele>192.88</ele>
        <time>2012-05-15T12:51:25Z</time>
      </trkpt>
      <trkpt lat="43.35161" lon="-0.54042">
        <ele>194.8</ele>
        <time>2012-05-15T12:51:37Z</time>
      </trkpt>
      <trkpt lat="43.35151" lon="-0.54036">
        <ele>194.8</ele>
        <time>2012-05-15T12:51:47Z</time>
      </trkpt>
      <trkpt lat="43.35142" lon="-0.54031">
        <ele>195.28</ele>
        <time>2012-05-15T12:51:54Z</time>
      </trkpt>
      <trkpt lat="43.3513" lon="-0.54026">
        <ele>195.28</ele>
        <time>2012-05-15T12:52:04Z</time>
      </trkpt>
      <trkpt lat="43.3512" lon="-0.54023">
        <ele>195.77</ele>
        <time>2012-05-15T12:52:13Z</time>
      </trkpt>
      <trkpt lat="43.35108" lon="-0.54021">
        <ele>195.77</ele>
        <time>2012-05-15T12:52:21Z</time>
      </trkpt>
      <trkpt lat="43.35098" lon="-0.54016">
        <ele>195.28</ele>
        <time>2012-05-15T12:52:30Z</time>
      </trkpt>
      <trkpt lat="43.35094" lon="-0.54005">
        <ele>195.28</ele>
        <time>2012-05-15T12:52:40Z</time>
      </trkpt>
      <trkpt lat="43.35089" lon="-0.53992">
        <ele>195.77</ele>
        <time>2012-05-15T12:52:52Z</time>
      </trkpt>
      <trkpt lat="43.35084" lon="-0.53972">
        <ele>194.8</ele>
        <time>2012-05-15T12:53:00Z</time>
      </trkpt>
      <trkpt lat="43.35077" lon="-0.53963">
        <ele>193.84</ele>
        <time>2012-05-15T12:53:08Z</time>
      </trkpt>
      <trkpt lat="43.35072" lon="-0.53953">
        <ele>193.84</ele>
        <time>2012-05-15T12:53:17Z</time>
      </trkpt>
      <trkpt lat="43.35068" lon="-0.53941">
        <ele>193.36</ele>
        <time>2012-05-15T12:53:24Z</time>
      </trkpt>
      <trkpt lat="43.35065" lon="-0.53927">
        <ele>192.88</ele>
        <time>2012-05-15T12:53:34Z</time>
      </trkpt>
      <trkpt lat="43.35067" lon="-0.53914">
        <ele>193.84</ele>
        <time>2012-05-15T12:53:42Z</time>
      </trkpt>
      <trkpt lat="43.3507" lon="-0.53903">
        <ele>193.36</ele>
        <time>2012-05-15T12:53:50Z</time>
      </trkpt>
      <trkpt lat="43.35072" lon="-0.5389">
        <ele>193.36</ele>
        <time>2012-05-15T12:53:59Z</time>
      </trkpt>
      <trkpt lat="43.35069" lon="-0.53874">
        <ele>193.36</ele>
        <time>2012-05-15T12:54:08Z</time>
      </trkpt>
      <trkpt lat="43.35067" lon="-0.5386">
        <ele>193.36</ele>
        <time>2012-05-15T12:54:16Z</time>
      </trkpt>
      <trkpt lat="43.35064" lon="-0.53846">
        <ele>193.36</ele>
        <time>2012-05-15T12:54:25Z</time>
      </trkpt>
      <trkpt lat="43.3506" lon="-0.53831">
        <ele>193.36</ele>
        <time>2012-05-15T12:54:35Z</time>
      </trkpt>
      <trkpt lat="43.35059" lon="-0.53819">
        <ele>192.4</ele>
        <time>2012-05-15T12:54:43Z</time>
      </trkpt>
      <trkpt lat="43.35057" lon="-0.53805">
        <ele>190.96</ele>
        <time>2012-05-15T12:54:52Z</time>
      </trkpt>
      <trkpt lat="43.35056" lon="-0.53792">
        <ele>190.48</ele>
        <time>2012-05-15T12:55:00Z</time>
      </trkpt>
      <trkpt lat="43.3505" lon="-0.53781">
        <ele>189.52</ele>
        <time>2012-05-15T12:55:10Z</time>
      </trkpt>
      <trkpt lat="43.3505" lon="-0.53765">
        <ele>189.04</ele>
        <time>2012-05-15T12:55:20Z</time>
      </trkpt>
      <trkpt lat="43.35047" lon="-0.5375">
        <ele>188.56</ele>
        <time>2012-05-15T12:55:30Z</time>
      </trkpt>
      <trkpt lat="43.35044" lon="-0.53736">
        <ele>188.08</ele>
        <time>2012-05-15T12:55:39Z</time>
      </trkpt>
      <trkpt lat="43.35041" lon="-0.53721">
        <ele>187.11</ele>
        <time>2012-05-15T12:55:48Z</time>
      </trkpt>
      <trkpt lat="43.35036" lon="-0.53709">
        <ele>186.63</ele>
        <time>2012-05-15T12:55:56Z</time>
      </trkpt>
      <trkpt lat="43.35032" lon="-0.53697">
        <ele>186.15</ele>
        <time>2012-05-15T12:56:04Z</time>
      </trkpt>
      <trkpt lat="43.35027" lon="-0.53686">
        <ele>187.11</ele>
        <time>2012-05-15T12:56:12Z</time>
      </trkpt>
      <trkpt lat="43.35022" lon="-0.53672">
        <ele>186.63</ele>
        <time>2012-05-15T12:56:21Z</time>
      </trkpt>
      <trkpt lat="43.35017" lon="-0.5366">
        <ele>186.15</ele>
        <time>2012-05-15T12:56:30Z</time>
      </trkpt>
      <trkpt lat="43.35014" lon="-0.53649">
        <ele>187.11</ele>
        <time>2012-05-15T12:56:38Z</time>
      </trkpt>
      <trkpt lat="43.35011" lon="-0.53637">
        <ele>187.59</ele>
        <time>2012-05-15T12:56:46Z</time>
      </trkpt>
      <trkpt lat="43.35007" lon="-0.53624">
        <ele>188.56</ele>
        <time>2012-05-15T12:56:55Z</time>
      </trkpt>
      <trkpt lat="43.35004" lon="-0.53612">
        <ele>189.52</ele>
        <time>2012-05-15T12:57:03Z</time>
      </trkpt>
      <trkpt lat="43.35001" lon="-0.53599">
        <ele>189.52</ele>
        <time>2012-05-15T12:57:11Z</time>
      </trkpt>
      <trkpt lat="43.35" lon="-0.53586">
        <ele>190</ele>
        <time>2012-05-15T12:57:19Z</time>
      </trkpt>
      <trkpt lat="43.35001" lon="-0.53573">
        <ele>189.52</ele>
        <time>2012-05-15T12:57:27Z</time>
      </trkpt>
      <trkpt lat="43.35002" lon="-0.5356">
        <ele>190.48</ele>
        <time>2012-05-15T12:57:35Z</time>
      </trkpt>
      <trkpt lat="43.35003" lon="-0.53546">
        <ele>190</ele>
        <time>2012-05-15T12:57:43Z</time>
      </trkpt>
      <trkpt lat="43.35002" lon="-0.53532">
        <ele>190.96</ele>
        <time>2012-05-15T12:57:51Z</time>
      </trkpt>
      <trkpt lat="43.35002" lon="-0.53517">
        <ele>190.48</ele>
        <time>2012-05-15T12:57:59Z</time>
      </trkpt>
      <trkpt lat="43.35004" lon="-0.53504">
        <ele>190.48</ele>
        <time>2012-05-15T12:58:07Z</time>
      </trkpt>
      <trkpt lat="43.35004" lon="-0.53491">
        <ele>190.96</ele>
        <time>2012-05-15T12:58:15Z</time>
      </trkpt>
      <trkpt lat="43.35004" lon="-0.53476">
        <ele>191.44</ele>
        <time>2012-05-15T12:58:24Z</time>
      </trkpt>
      <trkpt lat="43.35006" lon="-0.53462">
        <ele>190.96</ele>
        <time>2012-05-15T12:58:32Z</time>
      </trkpt>
      <trkpt lat="43.35005" lon="-0.53448">
        <ele>190.96</ele>
        <time>2012-05-15T12:58:40Z</time>
      </trkpt>
      <trkpt lat="43.35004" lon="-0.53435">
        <ele>191.44</ele>
        <time>2012-05-15T12:58:48Z</time>
      </trkpt>
      <trkpt lat="43.35001" lon="-0.53418">
        <ele>191.92</ele>
        <time>2012-05-15T12:58:58Z</time>
      </trkpt>
      <trkpt lat="43.35" lon="-0.53404">
        <ele>191.92</ele>
        <time>2012-05-15T12:59:08Z</time>
      </trkpt>
      <trkpt lat="43.35001" lon="-0.53389">
        <ele>192.4</ele>
        <time>2012-05-15T12:59:17Z</time>
      </trkpt>
      <trkpt lat="43.35" lon="-0.53376">
        <ele>193.36</ele>
        <time>2012-05-15T12:59:26Z</time>
      </trkpt>
      <trkpt lat="43.34998" lon="-0.53362">
        <ele>194.32</ele>
        <time>2012-05-15T12:59:35Z</time>
      </trkpt>
      <trkpt lat="43.34992" lon="-0.53346">
        <ele>193.84</ele>
        <time>2012-05-15T12:59:45Z</time>
      </trkpt>
      <trkpt lat="43.34986" lon="-0.53338">
        <ele>193.84</ele>
        <time>2012-05-15T12:59:54Z</time>
      </trkpt>
      <trkpt lat="43.34981" lon="-0.53327">
        <ele>193.84</ele>
        <time>2012-05-15T13:00:03Z</time>
      </trkpt>
      <trkpt lat="43.34975" lon="-0.53301">
        <ele>196.25</ele>
        <time>2012-05-15T13:00:19Z</time>
      </trkpt>
      <trkpt lat="43.34973" lon="-0.53288">
        <ele>197.69</ele>
        <time>2012-05-15T13:00:28Z</time>
      </trkpt>
      <trkpt lat="43.34971" lon="-0.53274">
        <ele>198.65</ele>
        <time>2012-05-15T13:00:36Z</time>
      </trkpt>
      <trkpt lat="43.3497" lon="-0.53259">
        <ele>199.13</ele>
        <time>2012-05-15T13:00:45Z</time>
      </trkpt>
      <trkpt lat="43.34965" lon="-0.53241">
        <ele>198.65</ele>
        <time>2012-05-15T13:00:56Z</time>
      </trkpt>
      <trkpt lat="43.34959" lon="-0.53229">
        <ele>198.17</ele>
        <time>2012-05-15T13:01:06Z</time>
      </trkpt>
      <trkpt lat="43.3495" lon="-0.53216">
        <ele>197.21</ele>
        <time>2012-05-15T13:01:16Z</time>
      </trkpt>
      <trkpt lat="43.34944" lon="-0.53206">
        <ele>196.73</ele>
        <time>2012-05-15T13:01:23Z</time>
      </trkpt>
      <trkpt lat="43.34935" lon="-0.53192">
        <ele>197.21</ele>
        <time>2012-05-15T13:01:34Z</time>
      </trkpt>
      <trkpt lat="43.34927" lon="-0.53178">
        <ele>195.77</ele>
        <time>2012-05-15T13:01:44Z</time>
      </trkpt>
      <trkpt lat="43.34917" lon="-0.53167">
        <ele>196.25</ele>
        <time>2012-05-15T13:01:54Z</time>
      </trkpt>
      <trkpt lat="43.34908" lon="-0.53167">
        <ele>194.8</ele>
        <time>2012-05-15T13:02:02Z</time>
      </trkpt>
      <trkpt lat="43.34895" lon="-0.53167">
        <ele>193.84</ele>
        <time>2012-05-15T13:02:14Z</time>
      </trkpt>
      <trkpt lat="43.34885" lon="-0.53168">
        <ele>192.4</ele>
        <time>2012-05-15T13:02:24Z</time>
      </trkpt>
      <trkpt lat="43.34874" lon="-0.53167">
        <ele>192.4</ele>
        <time>2012-05-15T13:02:33Z</time>
      </trkpt>
      <trkpt lat="43.34864" lon="-0.53169">
        <ele>191.44</ele>
        <time>2012-05-15T13:02:43Z</time>
      </trkpt>
      <trkpt lat="43.3485" lon="-0.53164">
        <ele>190.96</ele>
        <time>2012-05-15T13:02:52Z</time>
      </trkpt>
      <trkpt lat="43.3484" lon="-0.53161">
        <ele>190.48</ele>
        <time>2012-05-15T13:03:01Z</time>
      </trkpt>
      <trkpt lat="43.34831" lon="-0.53162">
        <ele>191.44</ele>
        <time>2012-05-15T13:03:14Z</time>
      </trkpt>
      <trkpt lat="43.34821" lon="-0.53164">
        <ele>191.44</ele>
        <time>2012-05-15T13:05:33Z</time>
      </trkpt>
      <trkpt lat="43.34811" lon="-0.53164">
        <ele>191.44</ele>
        <time>2012-05-15T13:05:43Z</time>
      </trkpt>
      <trkpt lat="43.348" lon="-0.53158">
        <ele>191.92</ele>
        <time>2012-05-15T13:05:53Z</time>
      </trkpt>
      <trkpt lat="43.3479" lon="-0.53157">
        <ele>192.4</ele>
        <time>2012-05-15T13:06:04Z</time>
      </trkpt>
      <trkpt lat="43.34778" lon="-0.5315">
        <ele>193.36</ele>
        <time>2012-05-15T13:06:16Z</time>
      </trkpt>
      <trkpt lat="43.34768" lon="-0.53144">
        <ele>194.8</ele>
        <time>2012-05-15T13:06:28Z</time>
      </trkpt>
      <trkpt lat="43.34759" lon="-0.5314">
        <ele>195.77</ele>
        <time>2012-05-15T13:06:38Z</time>
      </trkpt>
      <trkpt lat="43.34761" lon="-0.53126">
        <ele>196.73</ele>
        <time>2012-05-15T13:06:49Z</time>
      </trkpt>
      <trkpt lat="43.34756" lon="-0.53114">
        <ele>196.73</ele>
        <time>2012-05-15T13:07:01Z</time>
      </trkpt>
      <trkpt lat="43.34748" lon="-0.53102">
        <ele>198.17</ele>
        <time>2012-05-15T13:07:13Z</time>
      </trkpt>
      <trkpt lat="43.3474" lon="-0.53093">
        <ele>199.61</ele>
        <time>2012-05-15T13:07:20Z</time>
      </trkpt>
      <trkpt lat="43.34732" lon="-0.53086">
        <ele>200.57</ele>
        <time>2012-05-15T13:07:27Z</time>
      </trkpt>
      <trkpt lat="43.34726" lon="-0.53076">
        <ele>201.53</ele>
        <time>2012-05-15T13:07:36Z</time>
      </trkpt>
      <trkpt lat="43.34718" lon="-0.53071">
        <ele>202.01</ele>
        <time>2012-05-15T13:07:45Z</time>
      </trkpt>
      <trkpt lat="43.34712" lon="-0.5306">
        <ele>202.01</ele>
        <time>2012-05-15T13:07:56Z</time>
      </trkpt>
      <trkpt lat="43.34703" lon="-0.53055">
        <ele>202.49</ele>
        <time>2012-05-15T13:08:04Z</time>
      </trkpt>
      <trkpt lat="43.34693" lon="-0.53049">
        <ele>202.98</ele>
        <time>2012-05-15T13:08:14Z</time>
      </trkpt>
      <trkpt lat="43.34685" lon="-0.53043">
        <ele>204.9</ele>
        <time>2012-05-15T13:08:25Z</time>
      </trkpt>
      <trkpt lat="43.3468" lon="-0.53033">
        <ele>203.94</ele>
        <time>2012-05-15T13:08:36Z</time>
      </trkpt>
      <trkpt lat="43.34673" lon="-0.53025">
        <ele>204.9</ele>
        <time>2012-05-15T13:08:46Z</time>
      </trkpt>
      <trkpt lat="43.34666" lon="-0.53017">
        <ele>206.82</ele>
        <time>2012-05-15T13:08:59Z</time>
      </trkpt>
      <trkpt lat="43.34656" lon="-0.53016">
        <ele>207.3</ele>
        <time>2012-05-15T13:09:08Z</time>
      </trkpt>
      <trkpt lat="43.34646" lon="-0.53011">
        <ele>207.3</ele>
        <time>2012-05-15T13:09:16Z</time>
      </trkpt>
      <trkpt lat="43.34636" lon="-0.53004">
        <ele>207.3</ele>
        <time>2012-05-15T13:09:25Z</time>
      </trkpt>
      <trkpt lat="43.34629" lon="-0.52994">
        <ele>208.26</ele>
        <time>2012-05-15T13:09:36Z</time>
      </trkpt>
      <trkpt lat="43.34623" lon="-0.52982">
        <ele>208.26</ele>
        <time>2012-05-15T13:09:45Z</time>
      </trkpt>
      <trkpt lat="43.34618" lon="-0.52972">
        <ele>208.26</ele>
        <time>2012-05-15T13:09:55Z</time>
      </trkpt>
      <trkpt lat="43.34609" lon="-0.52965">
        <ele>208.74</ele>
        <time>2012-05-15T13:10:05Z</time>
      </trkpt>
      <trkpt lat="43.34602" lon="-0.52956">
        <ele>209.22</ele>
        <time>2012-05-15T13:10:14Z</time>
      </trkpt>
      <trkpt lat="43.34593" lon="-0.52948">
        <ele>209.7</ele>
        <time>2012-05-15T13:10:23Z</time>
      </trkpt>
      <trkpt lat="43.34584" lon="-0.52944">
        <ele>209.22</ele>
        <time>2012-05-15T13:10:32Z</time>
      </trkpt>
      <trkpt lat="43.34575" lon="-0.52938">
        <ele>210.19</ele>
        <time>2012-05-15T13:10:41Z</time>
      </trkpt>
      <trkpt lat="43.34568" lon="-0.52929">
        <ele>210.67</ele>
        <time>2012-05-15T13:10:50Z</time>
      </trkpt>
      <trkpt lat="43.34559" lon="-0.52924">
        <ele>210.67</ele>
        <time>2012-05-15T13:11:00Z</time>
      </trkpt>
      <trkpt lat="43.34551" lon="-0.52916">
        <ele>211.63</ele>
        <time>2012-05-15T13:11:08Z</time>
      </trkpt>
      <trkpt lat="43.34541" lon="-0.52911">
        <ele>212.11</ele>
        <time>2012-05-15T13:11:18Z</time>
      </trkpt>
      <trkpt lat="43.34533" lon="-0.52904">
        <ele>210.67</ele>
        <time>2012-05-15T13:11:28Z</time>
      </trkpt>
      <trkpt lat="43.34528" lon="-0.52894">
        <ele>209.22</ele>
        <time>2012-05-15T13:11:38Z</time>
      </trkpt>
      <trkpt lat="43.34522" lon="-0.52886">
        <ele>209.22</ele>
        <time>2012-05-15T13:11:45Z</time>
      </trkpt>
      <trkpt lat="43.34516" lon="-0.52876">
        <ele>209.22</ele>
        <time>2012-05-15T13:11:54Z</time>
      </trkpt>
      <trkpt lat="43.34511" lon="-0.52865">
        <ele>207.3</ele>
        <time>2012-05-15T13:12:03Z</time>
      </trkpt>
      <trkpt lat="43.34504" lon="-0.52855">
        <ele>207.78</ele>
        <time>2012-05-15T13:12:12Z</time>
      </trkpt>
      <trkpt lat="43.34495" lon="-0.5285">
        <ele>208.74</ele>
        <time>2012-05-15T13:12:22Z</time>
      </trkpt>
      <trkpt lat="43.34487" lon="-0.52842">
        <ele>210.19</ele>
        <time>2012-05-15T13:12:32Z</time>
      </trkpt>
      <trkpt lat="43.34481" lon="-0.52833">
        <ele>212.11</ele>
        <time>2012-05-15T13:12:44Z</time>
      </trkpt>
      <trkpt lat="43.34474" lon="-0.52822">
        <ele>212.59</ele>
        <time>2012-05-15T13:12:52Z</time>
      </trkpt>
      <trkpt lat="43.34469" lon="-0.52811">
        <ele>212.11</ele>
        <time>2012-05-15T13:13:01Z</time>
      </trkpt>
      <trkpt lat="43.34465" lon="-0.528">
        <ele>213.07</ele>
        <time>2012-05-15T13:13:11Z</time>
      </trkpt>
      <trkpt lat="43.34462" lon="-0.5279">
        <ele>211.63</ele>
        <time>2012-05-15T13:13:26Z</time>
      </trkpt>
      <trkpt lat="43.34462" lon="-0.52777">
        <ele>210.19</ele>
        <time>2012-05-15T13:13:38Z</time>
      </trkpt>
      <trkpt lat="43.34462" lon="-0.52765">
        <ele>209.22</ele>
        <time>2012-05-15T13:13:47Z</time>
      </trkpt>
      <trkpt lat="43.34463" lon="-0.52751">
        <ele>210.67</ele>
        <time>2012-05-15T13:14:00Z</time>
      </trkpt>
      <trkpt lat="43.3446" lon="-0.52737">
        <ele>212.11</ele>
        <time>2012-05-15T13:14:18Z</time>
      </trkpt>
      <trkpt lat="43.34459" lon="-0.52718">
        <ele>212.11</ele>
        <time>2012-05-15T13:14:31Z</time>
      </trkpt>
      <trkpt lat="43.34454" lon="-0.52707">
        <ele>211.63</ele>
        <time>2012-05-15T13:14:39Z</time>
      </trkpt>
      <trkpt lat="43.34443" lon="-0.52698">
        <ele>213.07</ele>
        <time>2012-05-15T13:14:48Z</time>
      </trkpt>
      <trkpt lat="43.34436" lon="-0.52683">
        <ele>213.07</ele>
        <time>2012-05-15T13:14:56Z</time>
      </trkpt>
      <trkpt lat="43.34432" lon="-0.52672">
        <ele>210.67</ele>
        <time>2012-05-15T13:15:06Z</time>
      </trkpt>
      <trkpt lat="43.34433" lon="-0.5266">
        <ele>210.67</ele>
        <time>2012-05-15T13:15:14Z</time>
      </trkpt>
      <trkpt lat="43.34422" lon="-0.52657">
        <ele>209.7</ele>
        <time>2012-05-15T13:15:23Z</time>
      </trkpt>
      <trkpt lat="43.34421" lon="-0.52649">
        <ele>210.67</ele>
        <time>2012-05-15T13:15:35Z</time>
      </trkpt>
      <trkpt lat="43.34422" lon="-0.52637">
        <ele>208.26</ele>
        <time>2012-05-15T13:15:46Z</time>
      </trkpt>
      <trkpt lat="43.34418" lon="-0.52626">
        <ele>208.74</ele>
        <time>2012-05-15T13:15:54Z</time>
      </trkpt>
      <trkpt lat="43.34418" lon="-0.52614">
        <ele>210.67</ele>
        <time>2012-05-15T13:16:08Z</time>
      </trkpt>
      <trkpt lat="43.34415" lon="-0.52603">
        <ele>209.7</ele>
        <time>2012-05-15T13:16:17Z</time>
      </trkpt>
      <trkpt lat="43.34406" lon="-0.52599">
        <ele>208.26</ele>
        <time>2012-05-15T13:16:26Z</time>
      </trkpt>
      <trkpt lat="43.34401" lon="-0.52591">
        <ele>207.3</ele>
        <time>2012-05-15T13:16:36Z</time>
      </trkpt>
      <trkpt lat="43.34393" lon="-0.52583">
        <ele>207.78</ele>
        <time>2012-05-15T13:16:46Z</time>
      </trkpt>
      <trkpt lat="43.34386" lon="-0.52574">
        <ele>207.78</ele>
        <time>2012-05-15T13:16:58Z</time>
      </trkpt>
      <trkpt lat="43.34378" lon="-0.52568">
        <ele>206.82</ele>
        <time>2012-05-15T13:17:08Z</time>
      </trkpt>
      <trkpt lat="43.3437" lon="-0.5256">
        <ele>205.86</ele>
        <time>2012-05-15T13:17:17Z</time>
      </trkpt>
      <trkpt lat="43.34369" lon="-0.52548">
        <ele>206.34</ele>
        <time>2012-05-15T13:17:24Z</time>
      </trkpt>
      <trkpt lat="43.34363" lon="-0.52539">
        <ele>205.86</ele>
        <time>2012-05-15T13:17:35Z</time>
      </trkpt>
      <trkpt lat="43.34362" lon="-0.52524">
        <ele>204.9</ele>
        <time>2012-05-15T13:17:49Z</time>
      </trkpt>
      <trkpt lat="43.34357" lon="-0.52514">
        <ele>204.42</ele>
        <time>2012-05-15T13:17:57Z</time>
      </trkpt>
      <trkpt lat="43.34349" lon="-0.52503">
        <ele>204.9</ele>
        <time>2012-05-15T13:18:07Z</time>
      </trkpt>
      <trkpt lat="43.34344" lon="-0.5249">
        <ele>205.38</ele>
        <time>2012-05-15T13:18:14Z</time>
      </trkpt>
      <trkpt lat="43.3434" lon="-0.52479">
        <ele>204.9</ele>
        <time>2012-05-15T13:18:25Z</time>
      </trkpt>
      <trkpt lat="43.34333" lon="-0.5247">
        <ele>203.46</ele>
        <time>2012-05-15T13:18:35Z</time>
      </trkpt>
      <trkpt lat="43.34325" lon="-0.52461">
        <ele>202.49</ele>
        <time>2012-05-15T13:18:44Z</time>
      </trkpt>
      <trkpt lat="43.34319" lon="-0.52451">
        <ele>202.49</ele>
        <time>2012-05-15T13:18:53Z</time>
      </trkpt>
      <trkpt lat="43.34312" lon="-0.52443">
        <ele>202.01</ele>
        <time>2012-05-15T13:19:02Z</time>
      </trkpt>
      <trkpt lat="43.34302" lon="-0.52437">
        <ele>201.53</ele>
        <time>2012-05-15T13:19:13Z</time>
      </trkpt>
      <trkpt lat="43.34295" lon="-0.5243">
        <ele>201.05</ele>
        <time>2012-05-15T13:19:22Z</time>
      </trkpt>
      <trkpt lat="43.3429" lon="-0.5242">
        <ele>202.01</ele>
        <time>2012-05-15T13:19:31Z</time>
      </trkpt>
      <trkpt lat="43.3429" lon="-0.52406">
        <ele>202.49</ele>
        <time>2012-05-15T13:19:40Z</time>
      </trkpt>
      <trkpt lat="43.34286" lon="-0.52393">
        <ele>202.98</ele>
        <time>2012-05-15T13:19:50Z</time>
      </trkpt>
      <trkpt lat="43.34281" lon="-0.52376">
        <ele>203.94</ele>
        <time>2012-05-15T13:20:02Z</time>
      </trkpt>
      <trkpt lat="43.34281" lon="-0.52364">
        <ele>204.9</ele>
        <time>2012-05-15T13:20:11Z</time>
      </trkpt>
      <trkpt lat="43.34278" lon="-0.52352">
        <ele>205.38</ele>
        <time>2012-05-15T13:20:19Z</time>
      </trkpt>
      <trkpt lat="43.3427" lon="-0.52343">
        <ele>205.38</ele>
        <time>2012-05-15T13:20:27Z</time>
      </trkpt>
      <trkpt lat="43.34259" lon="-0.52334">
        <ele>205.86</ele>
        <time>2012-05-15T13:20:35Z</time>
      </trkpt>
      <trkpt lat="43.34251" lon="-0.52327">
        <ele>206.34</ele>
        <time>2012-05-15T13:20:43Z</time>
      </trkpt>
      <trkpt lat="43.34241" lon="-0.5232">
        <ele>206.34</ele>
        <time>2012-05-15T13:20:52Z</time>
      </trkpt>
      <trkpt lat="43.34232" lon="-0.52321">
        <ele>205.86</ele>
        <time>2012-05-15T13:21:02Z</time>
      </trkpt>
      <trkpt lat="43.34223" lon="-0.52319">
        <ele>205.86</ele>
        <time>2012-05-15T13:21:12Z</time>
      </trkpt>
      <trkpt lat="43.34214" lon="-0.52317">
        <ele>205.86</ele>
        <time>2012-05-15T13:21:21Z</time>
      </trkpt>
      <trkpt lat="43.34204" lon="-0.52313">
        <ele>206.34</ele>
        <time>2012-05-15T13:21:31Z</time>
      </trkpt>
      <trkpt lat="43.34194" lon="-0.52307">
        <ele>206.82</ele>
        <time>2012-05-15T13:21:41Z</time>
      </trkpt>
      <trkpt lat="43.34187" lon="-0.52298">
        <ele>207.3</ele>
        <time>2012-05-15T13:21:49Z</time>
      </trkpt>
      <trkpt lat="43.34177" lon="-0.5229">
        <ele>207.78</ele>
        <time>2012-05-15T13:21:58Z</time>
      </trkpt>
      <trkpt lat="43.34169" lon="-0.52284">
        <ele>208.74</ele>
        <time>2012-05-15T13:22:09Z</time>
      </trkpt>
      <trkpt lat="43.34162" lon="-0.52274">
        <ele>210.67</ele>
        <time>2012-05-15T13:22:27Z</time>
      </trkpt>
      <trkpt lat="43.34155" lon="-0.52266">
        <ele>210.67</ele>
        <time>2012-05-15T13:22:35Z</time>
      </trkpt>
      <trkpt lat="43.34147" lon="-0.52263">
        <ele>211.63</ele>
        <time>2012-05-15T13:22:50Z</time>
      </trkpt>
      <trkpt lat="43.34137" lon="-0.52257">
        <ele>212.11</ele>
        <time>2012-05-15T13:23:03Z</time>
      </trkpt>
      <trkpt lat="43.34128" lon="-0.52256">
        <ele>212.59</ele>
        <time>2012-05-15T13:23:15Z</time>
      </trkpt>
      <trkpt lat="43.34119" lon="-0.52255">
        <ele>210.67</ele>
        <time>2012-05-15T13:25:43Z</time>
      </trkpt>
      <trkpt lat="43.34109" lon="-0.52247">
        <ele>210.19</ele>
        <time>2012-05-15T13:25:53Z</time>
      </trkpt>
      <trkpt lat="43.341" lon="-0.52237">
        <ele>209.22</ele>
        <time>2012-05-15T13:26:03Z</time>
      </trkpt>
      <trkpt lat="43.34088" lon="-0.52221">
        <ele>209.22</ele>
        <time>2012-05-15T13:26:13Z</time>
      </trkpt>
      <trkpt lat="43.3408" lon="-0.5221">
        <ele>208.74</ele>
        <time>2012-05-15T13:26:21Z</time>
      </trkpt>
      <trkpt lat="43.34072" lon="-0.52202">
        <ele>208.74</ele>
        <time>2012-05-15T13:26:29Z</time>
      </trkpt>
      <trkpt lat="43.34059" lon="-0.52198">
        <ele>207.3</ele>
        <time>2012-05-15T13:26:39Z</time>
      </trkpt>
      <trkpt lat="43.34046" lon="-0.52194">
        <ele>207.3</ele>
        <time>2012-05-15T13:26:48Z</time>
      </trkpt>
      <trkpt lat="43.34035" lon="-0.5219">
        <ele>207.3</ele>
        <time>2012-05-15T13:26:58Z</time>
      </trkpt>
      <trkpt lat="43.34026" lon="-0.52182">
        <ele>208.26</ele>
        <time>2012-05-15T13:27:07Z</time>
      </trkpt>
      <trkpt lat="43.34016" lon="-0.52174">
        <ele>208.74</ele>
        <time>2012-05-15T13:27:17Z</time>
      </trkpt>
      <trkpt lat="43.34007" lon="-0.5217">
        <ele>208.74</ele>
        <time>2012-05-15T13:27:27Z</time>
      </trkpt>
      <trkpt lat="43.3401" lon="-0.52186">
        <ele>206.34</ele>
        <time>2012-05-15T13:28:06Z</time>
      </trkpt>
      <trkpt lat="43.34012" lon="-0.52193">
        <ele>205.86</ele>
        <time>2012-05-15T13:29:57Z</time>
      </trkpt>
      <trkpt lat="43.34018" lon="-0.52207">
        <ele>204.42</ele>
        <time>2012-05-15T13:30:06Z</time>
      </trkpt>
      <trkpt lat="43.34024" lon="-0.52219">
        <ele>202.98</ele>
        <time>2012-05-15T13:30:15Z</time>
      </trkpt>
      <trkpt lat="43.34029" lon="-0.52234">
        <ele>202.49</ele>
        <time>2012-05-15T13:30:25Z</time>
      </trkpt>
      <trkpt lat="43.34034" lon="-0.52246">
        <ele>202.01</ele>
        <time>2012-05-15T13:30:34Z</time>
      </trkpt>
      <trkpt lat="43.34039" lon="-0.52258">
        <ele>201.53</ele>
        <time>2012-05-15T13:30:43Z</time>
      </trkpt>
      <trkpt lat="43.34046" lon="-0.5227">
        <ele>200.57</ele>
        <time>2012-05-15T13:30:54Z</time>
      </trkpt>
      <trkpt lat="43.34055" lon="-0.52275">
        <ele>201.05</ele>
        <time>2012-05-15T13:31:12Z</time>
      </trkpt>
      <trkpt lat="43.34064" lon="-0.52288">
        <ele>201.53</ele>
        <time>2012-05-15T13:31:32Z</time>
      </trkpt>
      <trkpt lat="43.34075" lon="-0.523">
        <ele>202.01</ele>
        <time>2012-05-15T13:31:46Z</time>
      </trkpt>
      <trkpt lat="43.34083" lon="-0.5231">
        <ele>202.98</ele>
        <time>2012-05-15T13:31:58Z</time>
      </trkpt>
      <trkpt lat="43.34085" lon="-0.52331">
        <ele>203.94</ele>
        <time>2012-05-15T13:32:11Z</time>
      </trkpt>
      <trkpt lat="43.34087" lon="-0.52345">
        <ele>203.46</ele>
        <time>2012-05-15T13:32:22Z</time>
      </trkpt>
      <trkpt lat="43.34089" lon="-0.52359">
        <ele>203.46</ele>
        <time>2012-05-15T13:32:31Z</time>
      </trkpt>
      <trkpt lat="43.34094" lon="-0.52374">
        <ele>203.46</ele>
        <time>2012-05-15T13:32:40Z</time>
      </trkpt>
      <trkpt lat="43.34099" lon="-0.52389">
        <ele>203.46</ele>
        <time>2012-05-15T13:32:50Z</time>
      </trkpt>
      <trkpt lat="43.34105" lon="-0.52402">
        <ele>203.46</ele>
        <time>2012-05-15T13:33:00Z</time>
      </trkpt>
      <trkpt lat="43.3411" lon="-0.52418">
        <ele>204.42</ele>
        <time>2012-05-15T13:33:11Z</time>
      </trkpt>
      <trkpt lat="43.34117" lon="-0.52431">
        <ele>204.42</ele>
        <time>2012-05-15T13:33:24Z</time>
      </trkpt>
      <trkpt lat="43.34122" lon="-0.52443">
        <ele>203.46</ele>
        <time>2012-05-15T13:33:34Z</time>
      </trkpt>
      <trkpt lat="43.34124" lon="-0.52456">
        <ele>203.46</ele>
        <time>2012-05-15T13:33:43Z</time>
      </trkpt>
      <trkpt lat="43.3413" lon="-0.52472">
        <ele>202.98</ele>
        <time>2012-05-15T13:33:55Z</time>
      </trkpt>
      <trkpt lat="43.34136" lon="-0.52484">
        <ele>202.98</ele>
        <time>2012-05-15T13:34:04Z</time>
      </trkpt>
      <trkpt lat="43.34143" lon="-0.52496">
        <ele>202.49</ele>
        <time>2012-05-15T13:34:15Z</time>
      </trkpt>
      <trkpt lat="43.34148" lon="-0.52513">
        <ele>202.49</ele>
        <time>2012-05-15T13:34:24Z</time>
      </trkpt>
      <trkpt lat="43.34153" lon="-0.52529">
        <ele>203.46</ele>
        <time>2012-05-15T13:34:35Z</time>
      </trkpt>
      <trkpt lat="43.34155" lon="-0.52543">
        <ele>203.46</ele>
        <time>2012-05-15T13:34:45Z</time>
      </trkpt>
      <trkpt lat="43.34152" lon="-0.52557">
        <ele>202.98</ele>
        <time>2012-05-15T13:34:57Z</time>
      </trkpt>
      <trkpt lat="43.34142" lon="-0.52565">
        <ele>201.53</ele>
        <time>2012-05-15T13:35:07Z</time>
      </trkpt>
      <trkpt lat="43.34132" lon="-0.52571">
        <ele>201.53</ele>
        <time>2012-05-15T13:35:20Z</time>
      </trkpt>
      <trkpt lat="43.34122" lon="-0.52578">
        <ele>200.57</ele>
        <time>2012-05-15T13:35:30Z</time>
      </trkpt>
      <trkpt lat="43.34113" lon="-0.52586">
        <ele>200.57</ele>
        <time>2012-05-15T13:35:40Z</time>
      </trkpt>
      <trkpt lat="43.34103" lon="-0.52593">
        <ele>200.57</ele>
        <time>2012-05-15T13:35:50Z</time>
      </trkpt>
      <trkpt lat="43.34092" lon="-0.526">
        <ele>200.09</ele>
        <time>2012-05-15T13:36:00Z</time>
      </trkpt>
      <trkpt lat="43.34082" lon="-0.52607">
        <ele>200.57</ele>
        <time>2012-05-15T13:36:09Z</time>
      </trkpt>
      <trkpt lat="43.3407" lon="-0.52609">
        <ele>201.05</ele>
        <time>2012-05-15T13:36:21Z</time>
      </trkpt>
      <trkpt lat="43.34058" lon="-0.52614">
        <ele>201.05</ele>
        <time>2012-05-15T13:36:31Z</time>
      </trkpt>
      <trkpt lat="43.34048" lon="-0.52621">
        <ele>201.05</ele>
        <time>2012-05-15T13:36:42Z</time>
      </trkpt>
      <trkpt lat="43.3404" lon="-0.5263">
        <ele>201.05</ele>
        <time>2012-05-15T13:36:54Z</time>
      </trkpt>
      <trkpt lat="43.34028" lon="-0.52644">
        <ele>201.53</ele>
        <time>2012-05-15T13:37:05Z</time>
      </trkpt>
      <trkpt lat="43.34019" lon="-0.5265">
        <ele>202.01</ele>
        <time>2012-05-15T13:37:13Z</time>
      </trkpt>
      <trkpt lat="43.3401" lon="-0.52661">
        <ele>202.01</ele>
        <time>2012-05-15T13:37:24Z</time>
      </trkpt>
      <trkpt lat="43.34006" lon="-0.52676">
        <ele>201.53</ele>
        <time>2012-05-15T13:37:33Z</time>
      </trkpt>
      <trkpt lat="43.33999" lon="-0.52692">
        <ele>202.98</ele>
        <time>2012-05-15T13:37:45Z</time>
      </trkpt>
      <trkpt lat="43.33987" lon="-0.52693">
        <ele>202.98</ele>
        <time>2012-05-15T13:38:00Z</time>
      </trkpt>
      <trkpt lat="43.3399" lon="-0.52697">
        <ele>202.98</ele>
        <time>2012-05-15T13:38:45Z</time>
      </trkpt>
      <trkpt lat="43.34" lon="-0.52698">
        <ele>204.9</ele>
        <time>2012-05-15T13:39:56Z</time>
      </trkpt>
      <trkpt lat="43.34" lon="-0.527">
        <ele>203.94</ele>
        <time>2012-05-15T14:04:44Z</time>
      </trkpt>
      <trkpt lat="43.33995" lon="-0.52713">
        <ele>204.9</ele>
        <time>2012-05-15T14:04:54Z</time>
      </trkpt>
      <trkpt lat="43.33991" lon="-0.52725">
        <ele>204.9</ele>
        <time>2012-05-15T14:05:05Z</time>
      </trkpt>
      <trkpt lat="43.33987" lon="-0.52737">
        <ele>204.42</ele>
        <time>2012-05-15T14:05:16Z</time>
      </trkpt>
      <trkpt lat="43.33983" lon="-0.52749">
        <ele>203.46</ele>
        <time>2012-05-15T14:05:26Z</time>
      </trkpt>
      <trkpt lat="43.33978" lon="-0.52761">
        <ele>203.46</ele>
        <time>2012-05-15T14:05:35Z</time>
      </trkpt>
      <trkpt lat="43.33973" lon="-0.52773">
        <ele>202.98</ele>
        <time>2012-05-15T14:05:44Z</time>
      </trkpt>
      <trkpt lat="43.33969" lon="-0.52785">
        <ele>202.49</ele>
        <time>2012-05-15T14:05:54Z</time>
      </trkpt>
      <trkpt lat="43.33965" lon="-0.52798">
        <ele>202.01</ele>
        <time>2012-05-15T14:06:03Z</time>
      </trkpt>
      <trkpt lat="43.33962" lon="-0.52811">
        <ele>202.01</ele>
        <time>2012-05-15T14:06:12Z</time>
      </trkpt>
      <trkpt lat="43.33961" lon="-0.52824">
        <ele>201.05</ele>
        <time>2012-05-15T14:06:23Z</time>
      </trkpt>
      <trkpt lat="43.33961" lon="-0.52834">
        <ele>199.13</ele>
        <time>2012-05-15T14:06:43Z</time>
      </trkpt>
      <trkpt lat="43.3396" lon="-0.52845">
        <ele>199.13</ele>
        <time>2012-05-15T14:06:53Z</time>
      </trkpt>
      <trkpt lat="43.33958" lon="-0.52858">
        <ele>199.61</ele>
        <time>2012-05-15T14:07:06Z</time>
      </trkpt>
      <trkpt lat="43.33954" lon="-0.52871">
        <ele>199.13</ele>
        <time>2012-05-15T14:07:15Z</time>
      </trkpt>
      <trkpt lat="43.33951" lon="-0.52884">
        <ele>198.17</ele>
        <time>2012-05-15T14:07:25Z</time>
      </trkpt>
      <trkpt lat="43.33948" lon="-0.52896">
        <ele>197.21</ele>
        <time>2012-05-15T14:07:34Z</time>
      </trkpt>
      <trkpt lat="43.33946" lon="-0.5291">
        <ele>197.69</ele>
        <time>2012-05-15T14:07:43Z</time>
      </trkpt>
      <trkpt lat="43.33945" lon="-0.52924">
        <ele>197.21</ele>
        <time>2012-05-15T14:07:53Z</time>
      </trkpt>
      <trkpt lat="43.33943" lon="-0.52939">
        <ele>197.21</ele>
        <time>2012-05-15T14:08:03Z</time>
      </trkpt>
      <trkpt lat="43.33943" lon="-0.52954">
        <ele>197.69</ele>
        <time>2012-05-15T14:08:12Z</time>
      </trkpt>
      <trkpt lat="43.33944" lon="-0.52969">
        <ele>197.69</ele>
        <time>2012-05-15T14:08:21Z</time>
      </trkpt>
      <trkpt lat="43.33945" lon="-0.52984">
        <ele>196.73</ele>
        <time>2012-05-15T14:08:31Z</time>
      </trkpt>
      <trkpt lat="43.33945" lon="-0.53">
        <ele>197.69</ele>
        <time>2012-05-15T14:08:41Z</time>
      </trkpt>
      <trkpt lat="43.33947" lon="-0.53016">
        <ele>197.21</ele>
        <time>2012-05-15T14:08:52Z</time>
      </trkpt>
      <trkpt lat="43.3395" lon="-0.53032">
        <ele>197.21</ele>
        <time>2012-05-15T14:09:03Z</time>
      </trkpt>
      <trkpt lat="43.33952" lon="-0.53047">
        <ele>198.17</ele>
        <time>2012-05-15T14:09:14Z</time>
      </trkpt>
      <trkpt lat="43.33954" lon="-0.53065">
        <ele>198.17</ele>
        <time>2012-05-15T14:09:26Z</time>
      </trkpt>
      <trkpt lat="43.33953" lon="-0.53079">
        <ele>198.17</ele>
        <time>2012-05-15T14:09:37Z</time>
      </trkpt>
      <trkpt lat="43.33954" lon="-0.53095">
        <ele>197.69</ele>
        <time>2012-05-15T14:09:49Z</time>
      </trkpt>
      <trkpt lat="43.33954" lon="-0.53106">
        <ele>198.17</ele>
        <time>2012-05-15T14:10:15Z</time>
      </trkpt>
      <trkpt lat="43.33958" lon="-0.53125">
        <ele>198.65</ele>
        <time>2012-05-15T14:10:28Z</time>
      </trkpt>
      <trkpt lat="43.33965" lon="-0.53139">
        <ele>198.65</ele>
        <time>2012-05-15T14:10:39Z</time>
      </trkpt>
      <trkpt lat="43.33976" lon="-0.53154">
        <ele>199.13</ele>
        <time>2012-05-15T14:10:52Z</time>
      </trkpt>
      <trkpt lat="43.33988" lon="-0.53165">
        <ele>201.05</ele>
        <time>2012-05-15T14:11:04Z</time>
      </trkpt>
      <trkpt lat="43.33998" lon="-0.53171">
        <ele>202.01</ele>
        <time>2012-05-15T14:11:17Z</time>
      </trkpt>
      <trkpt lat="43.34008" lon="-0.53176">
        <ele>203.46</ele>
        <time>2012-05-15T14:11:30Z</time>
      </trkpt>
      <trkpt lat="43.34024" lon="-0.5318">
        <ele>203.94</ele>
        <time>2012-05-15T14:11:40Z</time>
      </trkpt>
      <trkpt lat="43.34035" lon="-0.5318">
        <ele>204.9</ele>
        <time>2012-05-15T14:11:51Z</time>
      </trkpt>
      <trkpt lat="43.3405" lon="-0.53181">
        <ele>204.9</ele>
        <time>2012-05-15T14:12:01Z</time>
      </trkpt>
      <trkpt lat="43.34064" lon="-0.53181">
        <ele>205.86</ele>
        <time>2012-05-15T14:12:14Z</time>
      </trkpt>
      <trkpt lat="43.34075" lon="-0.53179">
        <ele>206.34</ele>
        <time>2012-05-15T14:12:26Z</time>
      </trkpt>
      <trkpt lat="43.34088" lon="-0.53178">
        <ele>206.82</ele>
        <time>2012-05-15T14:12:35Z</time>
      </trkpt>
      <trkpt lat="43.34097" lon="-0.53178">
        <ele>206.82</ele>
        <time>2012-05-15T14:12:43Z</time>
      </trkpt>
      <trkpt lat="43.34108" lon="-0.53177">
        <ele>207.78</ele>
        <time>2012-05-15T14:13:09Z</time>
      </trkpt>
      <trkpt lat="43.34122" lon="-0.5318">
        <ele>207.78</ele>
        <time>2012-05-15T14:13:17Z</time>
      </trkpt>
      <trkpt lat="43.34139" lon="-0.53184">
        <ele>207.78</ele>
        <time>2012-05-15T14:13:29Z</time>
      </trkpt>
      <trkpt lat="43.34137" lon="-0.53199">
        <ele>205.86</ele>
        <time>2012-05-15T14:13:41Z</time>
      </trkpt>
      <trkpt lat="43.34132" lon="-0.53209">
        <ele>204.9</ele>
        <time>2012-05-15T14:13:51Z</time>
      </trkpt>
      <trkpt lat="43.34125" lon="-0.53227">
        <ele>202.98</ele>
        <time>2012-05-15T14:14:03Z</time>
      </trkpt>
      <trkpt lat="43.34118" lon="-0.53238">
        <ele>200.57</ele>
        <time>2012-05-15T14:14:13Z</time>
      </trkpt>
      <trkpt lat="43.34108" lon="-0.53248">
        <ele>198.65</ele>
        <time>2012-05-15T14:14:20Z</time>
      </trkpt>
      <trkpt lat="43.34099" lon="-0.53254">
        <ele>198.17</ele>
        <time>2012-05-15T14:14:26Z</time>
      </trkpt>
      <trkpt lat="43.34089" lon="-0.53262">
        <ele>196.73</ele>
        <time>2012-05-15T14:14:33Z</time>
      </trkpt>
      <trkpt lat="43.3408" lon="-0.53267">
        <ele>195.77</ele>
        <time>2012-05-15T14:14:40Z</time>
      </trkpt>
      <trkpt lat="43.34071" lon="-0.53276">
        <ele>194.8</ele>
        <time>2012-05-15T14:14:47Z</time>
      </trkpt>
      <trkpt lat="43.34063" lon="-0.53281">
        <ele>194.32</ele>
        <time>2012-05-15T14:14:54Z</time>
      </trkpt>
      <trkpt lat="43.34056" lon="-0.53289">
        <ele>192.88</ele>
        <time>2012-05-15T14:15:04Z</time>
      </trkpt>
      <trkpt lat="43.34048" lon="-0.53299">
        <ele>191.44</ele>
        <time>2012-05-15T14:15:13Z</time>
      </trkpt>
      <trkpt lat="43.3404" lon="-0.53307">
        <ele>190.96</ele>
        <time>2012-05-15T14:15:22Z</time>
      </trkpt>
      <trkpt lat="43.34031" lon="-0.5331">
        <ele>189.04</ele>
        <time>2012-05-15T14:15:35Z</time>
      </trkpt>
      <trkpt lat="43.34019" lon="-0.5331">
        <ele>188.08</ele>
        <time>2012-05-15T14:15:45Z</time>
      </trkpt>
      <trkpt lat="43.3401" lon="-0.5331">
        <ele>187.59</ele>
        <time>2012-05-15T14:15:57Z</time>
      </trkpt>
      <trkpt lat="43.33995" lon="-0.53307">
        <ele>186.63</ele>
        <time>2012-05-15T14:16:06Z</time>
      </trkpt>
      <trkpt lat="43.33987" lon="-0.53304">
        <ele>185.67</ele>
        <time>2012-05-15T14:16:14Z</time>
      </trkpt>
      <trkpt lat="43.33976" lon="-0.53298">
        <ele>185.19</ele>
        <time>2012-05-15T14:16:23Z</time>
      </trkpt>
      <trkpt lat="43.33966" lon="-0.53299">
        <ele>183.75</ele>
        <time>2012-05-15T14:16:34Z</time>
      </trkpt>
      <trkpt lat="43.33951" lon="-0.53312">
        <ele>180.38</ele>
        <time>2012-05-15T14:16:56Z</time>
      </trkpt>
      <trkpt lat="43.33937" lon="-0.53316">
        <ele>179.9</ele>
        <time>2012-05-15T14:17:06Z</time>
      </trkpt>
      <trkpt lat="43.33928" lon="-0.53314">
        <ele>179.42</ele>
        <time>2012-05-15T14:17:14Z</time>
      </trkpt>
      <trkpt lat="43.33915" lon="-0.53309">
        <ele>178.46</ele>
        <time>2012-05-15T14:17:26Z</time>
      </trkpt>
      <trkpt lat="43.33904" lon="-0.53305">
        <ele>177.98</ele>
        <time>2012-05-15T14:17:35Z</time>
      </trkpt>
      <trkpt lat="43.33895" lon="-0.53302">
        <ele>176.54</ele>
        <time>2012-05-15T14:17:44Z</time>
      </trkpt>
      <trkpt lat="43.3388" lon="-0.53304">
        <ele>175.58</ele>
        <time>2012-05-15T14:17:55Z</time>
      </trkpt>
      <trkpt lat="43.33868" lon="-0.53303">
        <ele>175.58</ele>
        <time>2012-05-15T14:18:05Z</time>
      </trkpt>
      <trkpt lat="43.33858" lon="-0.53305">
        <ele>174.62</ele>
        <time>2012-05-15T14:18:15Z</time>
      </trkpt>
      <trkpt lat="43.33847" lon="-0.53304">
        <ele>174.14</ele>
        <time>2012-05-15T14:18:24Z</time>
      </trkpt>
      <trkpt lat="43.33835" lon="-0.53303">
        <ele>172.69</ele>
        <time>2012-05-15T14:18:33Z</time>
      </trkpt>
      <trkpt lat="43.33825" lon="-0.53306">
        <ele>170.77</ele>
        <time>2012-05-15T14:18:43Z</time>
      </trkpt>
      <trkpt lat="43.33815" lon="-0.53303">
        <ele>168.85</ele>
        <time>2012-05-15T14:18:54Z</time>
      </trkpt>
      <trkpt lat="43.338" lon="-0.53305">
        <ele>169.33</ele>
        <time>2012-05-15T14:19:06Z</time>
      </trkpt>
      <trkpt lat="43.33789" lon="-0.53304">
        <ele>166.45</ele>
        <time>2012-05-15T14:19:16Z</time>
      </trkpt>
      <trkpt lat="43.33779" lon="-0.53306">
        <ele>165</ele>
        <time>2012-05-15T14:19:24Z</time>
      </trkpt>
      <trkpt lat="43.33765" lon="-0.53305">
        <ele>164.04</ele>
        <time>2012-05-15T14:19:34Z</time>
      </trkpt>
      <trkpt lat="43.33754" lon="-0.53303">
        <ele>162.6</ele>
        <time>2012-05-15T14:19:44Z</time>
      </trkpt>
      <trkpt lat="43.33738" lon="-0.53302">
        <ele>161.16</ele>
        <time>2012-05-15T14:19:56Z</time>
      </trkpt>
      <trkpt lat="43.33725" lon="-0.53308">
        <ele>159.72</ele>
        <time>2012-05-15T14:20:07Z</time>
      </trkpt>
      <trkpt lat="43.33712" lon="-0.5331">
        <ele>158.27</ele>
        <time>2012-05-15T14:20:19Z</time>
      </trkpt>
      <trkpt lat="43.337" lon="-0.53306">
        <ele>157.31</ele>
        <time>2012-05-15T14:20:32Z</time>
      </trkpt>
      <trkpt lat="43.33692" lon="-0.53298">
        <ele>156.35</ele>
        <time>2012-05-15T14:20:52Z</time>
      </trkpt>
      <trkpt lat="43.33683" lon="-0.5329">
        <ele>155.87</ele>
        <time>2012-05-15T14:21:14Z</time>
      </trkpt>
      <trkpt lat="43.33676" lon="-0.53283">
        <ele>155.87</ele>
        <time>2012-05-15T14:21:22Z</time>
      </trkpt>
      <trkpt lat="43.33669" lon="-0.53274">
        <ele>154.91</ele>
        <time>2012-05-15T14:21:30Z</time>
      </trkpt>
      <trkpt lat="43.3366" lon="-0.53262">
        <ele>154.91</ele>
        <time>2012-05-15T14:21:39Z</time>
      </trkpt>
      <trkpt lat="43.33651" lon="-0.53255">
        <ele>153.95</ele>
        <time>2012-05-15T14:21:48Z</time>
      </trkpt>
      <trkpt lat="43.33639" lon="-0.53248">
        <ele>152.99</ele>
        <time>2012-05-15T14:21:58Z</time>
      </trkpt>
      <trkpt lat="43.3363" lon="-0.53245">
        <ele>152.03</ele>
        <time>2012-05-15T14:22:07Z</time>
      </trkpt>
      <trkpt lat="43.33618" lon="-0.5324">
        <ele>150.1</ele>
        <time>2012-05-15T14:22:19Z</time>
      </trkpt>
      <trkpt lat="43.33608" lon="-0.53236">
        <ele>148.18</ele>
        <time>2012-05-15T14:22:30Z</time>
      </trkpt>
      <trkpt lat="43.33596" lon="-0.53237">
        <ele>147.22</ele>
        <time>2012-05-15T14:22:41Z</time>
      </trkpt>
      <trkpt lat="43.33585" lon="-0.53237">
        <ele>145.3</ele>
        <time>2012-05-15T14:22:53Z</time>
      </trkpt>
      <trkpt lat="43.33572" lon="-0.53234">
        <ele>143.85</ele>
        <time>2012-05-15T14:23:04Z</time>
      </trkpt>
      <trkpt lat="43.3356" lon="-0.53231">
        <ele>142.41</ele>
        <time>2012-05-15T14:23:16Z</time>
      </trkpt>
      <trkpt lat="43.33548" lon="-0.5323">
        <ele>140.97</ele>
        <time>2012-05-15T14:24:13Z</time>
      </trkpt>
      <trkpt lat="43.33535" lon="-0.53229">
        <ele>140.49</ele>
        <time>2012-05-15T14:24:23Z</time>
      </trkpt>
      <trkpt lat="43.33522" lon="-0.53229">
        <ele>139.05</ele>
        <time>2012-05-15T14:24:34Z</time>
      </trkpt>
      <trkpt lat="43.3351" lon="-0.53225">
        <ele>138.09</ele>
        <time>2012-05-15T14:24:43Z</time>
      </trkpt>
      <trkpt lat="43.33497" lon="-0.53223">
        <ele>137.13</ele>
        <time>2012-05-15T14:24:53Z</time>
      </trkpt>
      <trkpt lat="43.33484" lon="-0.53228">
        <ele>135.68</ele>
        <time>2012-05-15T14:25:03Z</time>
      </trkpt>
      <trkpt lat="43.33473" lon="-0.53241">
        <ele>133.76</ele>
        <time>2012-05-15T14:25:16Z</time>
      </trkpt>
      <trkpt lat="43.33464" lon="-0.53242">
        <ele>133.76</ele>
        <time>2012-05-15T14:25:27Z</time>
      </trkpt>
      <trkpt lat="43.33461" lon="-0.53247">
        <ele>132.8</ele>
        <time>2012-05-15T14:25:59Z</time>
      </trkpt>
      <trkpt lat="43.33455" lon="-0.53255">
        <ele>132.8</ele>
        <time>2012-05-15T14:26:08Z</time>
      </trkpt>
      <trkpt lat="43.33451" lon="-0.53269">
        <ele>132.8</ele>
        <time>2012-05-15T14:26:19Z</time>
      </trkpt>
      <trkpt lat="43.33441" lon="-0.53281">
        <ele>131.84</ele>
        <time>2012-05-15T14:26:29Z</time>
      </trkpt>
      <trkpt lat="43.33433" lon="-0.5329">
        <ele>131.84</ele>
        <time>2012-05-15T14:26:38Z</time>
      </trkpt>
      <trkpt lat="43.33429" lon="-0.53304">
        <ele>132.8</ele>
        <time>2012-05-15T14:26:47Z</time>
      </trkpt>
      <trkpt lat="43.33423" lon="-0.53319">
        <ele>133.76</ele>
        <time>2012-05-15T14:27:00Z</time>
      </trkpt>
      <trkpt lat="43.33416" lon="-0.53329">
        <ele>133.76</ele>
        <time>2012-05-15T14:27:10Z</time>
      </trkpt>
      <trkpt lat="43.33405" lon="-0.53329">
        <ele>132.8</ele>
        <time>2012-05-15T14:27:20Z</time>
      </trkpt>
      <trkpt lat="43.33393" lon="-0.53334">
        <ele>131.36</ele>
        <time>2012-05-15T14:27:30Z</time>
      </trkpt>
      <trkpt lat="43.33387" lon="-0.53345">
        <ele>130.88</ele>
        <time>2012-05-15T14:27:38Z</time>
      </trkpt>
      <trkpt lat="43.33379" lon="-0.53356">
        <ele>129.92</ele>
        <time>2012-05-15T14:27:46Z</time>
      </trkpt>
      <trkpt lat="43.33371" lon="-0.53366">
        <ele>129.92</ele>
        <time>2012-05-15T14:27:56Z</time>
      </trkpt>
      <trkpt lat="43.33363" lon="-0.53377">
        <ele>129.43</ele>
        <time>2012-05-15T14:28:06Z</time>
      </trkpt>
      <trkpt lat="43.33359" lon="-0.53384">
        <ele>128.95</ele>
        <time>2012-05-15T14:28:27Z</time>
      </trkpt>
      <trkpt lat="43.33365" lon="-0.53395">
        <ele>130.4</ele>
        <time>2012-05-15T14:29:21Z</time>
      </trkpt>
      <trkpt lat="43.33372" lon="-0.53408">
        <ele>128.47</ele>
        <time>2012-05-15T14:30:06Z</time>
      </trkpt>
      <trkpt lat="43.33378" lon="-0.5342">
        <ele>128.47</ele>
        <time>2012-05-15T14:30:15Z</time>
      </trkpt>
      <trkpt lat="43.33387" lon="-0.53431">
        <ele>128.47</ele>
        <time>2012-05-15T14:30:23Z</time>
      </trkpt>
      <trkpt lat="43.33394" lon="-0.5344">
        <ele>127.99</ele>
        <time>2012-05-15T14:30:31Z</time>
      </trkpt>
      <trkpt lat="43.33404" lon="-0.5345">
        <ele>127.03</ele>
        <time>2012-05-15T14:30:40Z</time>
      </trkpt>
      <trkpt lat="43.33414" lon="-0.53457">
        <ele>127.03</ele>
        <time>2012-05-15T14:30:48Z</time>
      </trkpt>
      <trkpt lat="43.33422" lon="-0.53464">
        <ele>126.55</ele>
        <time>2012-05-15T14:30:56Z</time>
      </trkpt>
      <trkpt lat="43.33432" lon="-0.5347">
        <ele>126.55</ele>
        <time>2012-05-15T14:31:04Z</time>
      </trkpt>
      <trkpt lat="43.33442" lon="-0.53474">
        <ele>126.55</ele>
        <time>2012-05-15T14:31:12Z</time>
      </trkpt>
      <trkpt lat="43.33452" lon="-0.53477">
        <ele>126.55</ele>
        <time>2012-05-15T14:31:20Z</time>
      </trkpt>
      <trkpt lat="43.33462" lon="-0.5348">
        <ele>126.55</ele>
        <time>2012-05-15T14:31:28Z</time>
      </trkpt>
      <trkpt lat="43.33471" lon="-0.53484">
        <ele>126.55</ele>
        <time>2012-05-15T14:31:35Z</time>
      </trkpt>
      <trkpt lat="43.33481" lon="-0.53488">
        <ele>126.55</ele>
        <time>2012-05-15T14:31:43Z</time>
      </trkpt>
      <trkpt lat="43.33488" lon="-0.53493">
        <ele>126.55</ele>
        <time>2012-05-15T14:31:51Z</time>
      </trkpt>
      <trkpt lat="43.33497" lon="-0.53498">
        <ele>126.55</ele>
        <time>2012-05-15T14:31:59Z</time>
      </trkpt>
      <trkpt lat="43.33505" lon="-0.53502">
        <ele>126.55</ele>
        <time>2012-05-15T14:32:06Z</time>
      </trkpt>
      <trkpt lat="43.33515" lon="-0.53507">
        <ele>126.07</ele>
        <time>2012-05-15T14:32:14Z</time>
      </trkpt>
      <trkpt lat="43.33527" lon="-0.53509">
        <ele>126.07</ele>
        <time>2012-05-15T14:32:23Z</time>
      </trkpt>
      <trkpt lat="43.3354" lon="-0.53513">
        <ele>126.55</ele>
        <time>2012-05-15T14:32:34Z</time>
      </trkpt>
      <trkpt lat="43.33554" lon="-0.53517">
        <ele>126.07</ele>
        <time>2012-05-15T14:32:44Z</time>
      </trkpt>
      <trkpt lat="43.33566" lon="-0.53521">
        <ele>126.07</ele>
        <time>2012-05-15T14:32:53Z</time>
      </trkpt>
      <trkpt lat="43.33577" lon="-0.53524">
        <ele>126.07</ele>
        <time>2012-05-15T14:33:01Z</time>
      </trkpt>
      <trkpt lat="43.33588" lon="-0.53529">
        <ele>126.07</ele>
        <time>2012-05-15T14:33:11Z</time>
      </trkpt>
      <trkpt lat="43.33588" lon="-0.5354">
        <ele>124.63</ele>
        <time>2012-05-15T14:33:39Z</time>
      </trkpt>
      <trkpt lat="43.33592" lon="-0.53529">
        <ele>125.59</ele>
        <time>2012-05-15T14:34:16Z</time>
      </trkpt>
      <trkpt lat="43.33602" lon="-0.53527">
        <ele>125.59</ele>
        <time>2012-05-15T14:34:24Z</time>
      </trkpt>
      <trkpt lat="43.33612" lon="-0.53538">
        <ele>126.55</ele>
        <time>2012-05-15T14:34:33Z</time>
      </trkpt>
      <trkpt lat="43.3362" lon="-0.53547">
        <ele>126.55</ele>
        <time>2012-05-15T14:34:41Z</time>
      </trkpt>
      <trkpt lat="43.33629" lon="-0.53556">
        <ele>126.55</ele>
        <time>2012-05-15T14:34:49Z</time>
      </trkpt>
      <trkpt lat="43.33637" lon="-0.53566">
        <ele>126.55</ele>
        <time>2012-05-15T14:34:58Z</time>
      </trkpt>
      <trkpt lat="43.33647" lon="-0.53576">
        <ele>127.99</ele>
        <time>2012-05-15T14:35:08Z</time>
      </trkpt>
      <trkpt lat="43.33654" lon="-0.53587">
        <ele>128.47</ele>
        <time>2012-05-15T14:35:19Z</time>
      </trkpt>
      <trkpt lat="43.33661" lon="-0.53598">
        <ele>127.99</ele>
        <time>2012-05-15T14:35:26Z</time>
      </trkpt>
      <trkpt lat="43.33666" lon="-0.5361">
        <ele>127.99</ele>
        <time>2012-05-15T14:35:33Z</time>
      </trkpt>
      <trkpt lat="43.33672" lon="-0.53623">
        <ele>127.99</ele>
        <time>2012-05-15T14:35:40Z</time>
      </trkpt>
      <trkpt lat="43.33678" lon="-0.53634">
        <ele>127.51</ele>
        <time>2012-05-15T14:35:48Z</time>
      </trkpt>
      <trkpt lat="43.33685" lon="-0.53644">
        <ele>127.99</ele>
        <time>2012-05-15T14:35:55Z</time>
      </trkpt>
      <trkpt lat="43.33691" lon="-0.53654">
        <ele>127.03</ele>
        <time>2012-05-15T14:36:02Z</time>
      </trkpt>
      <trkpt lat="43.33696" lon="-0.53663">
        <ele>126.07</ele>
        <time>2012-05-15T14:36:09Z</time>
      </trkpt>
      <trkpt lat="43.33702" lon="-0.53675">
        <ele>127.51</ele>
        <time>2012-05-15T14:36:17Z</time>
      </trkpt>
      <trkpt lat="43.33708" lon="-0.53685">
        <ele>127.51</ele>
        <time>2012-05-15T14:36:24Z</time>
      </trkpt>
      <trkpt lat="43.33714" lon="-0.53694">
        <ele>127.03</ele>
        <time>2012-05-15T14:36:31Z</time>
      </trkpt>
      <trkpt lat="43.33721" lon="-0.53703">
        <ele>126.55</ele>
        <time>2012-05-15T14:36:38Z</time>
      </trkpt>
      <trkpt lat="43.33728" lon="-0.53712">
        <ele>126.07</ele>
        <time>2012-05-15T14:36:45Z</time>
      </trkpt>
      <trkpt lat="43.33734" lon="-0.53722">
        <ele>126.55</ele>
        <time>2012-05-15T14:36:52Z</time>
      </trkpt>
      <trkpt lat="43.3374" lon="-0.53732">
        <ele>126.55</ele>
        <time>2012-05-15T14:37:00Z</time>
      </trkpt>
      <trkpt lat="43.33747" lon="-0.53741">
        <ele>126.55</ele>
        <time>2012-05-15T14:37:08Z</time>
      </trkpt>
      <trkpt lat="43.33754" lon="-0.53751">
        <ele>126.55</ele>
        <time>2012-05-15T14:37:16Z</time>
      </trkpt>
      <trkpt lat="43.33761" lon="-0.53759">
        <ele>127.51</ele>
        <time>2012-05-15T14:37:24Z</time>
      </trkpt>
      <trkpt lat="43.33767" lon="-0.53771">
        <ele>127.99</ele>
        <time>2012-05-15T14:37:45Z</time>
      </trkpt>
      <trkpt lat="43.33778" lon="-0.53788">
        <ele>127.99</ele>
        <time>2012-05-15T14:37:56Z</time>
      </trkpt>
      <trkpt lat="43.33785" lon="-0.53805">
        <ele>128.47</ele>
        <time>2012-05-15T14:38:04Z</time>
      </trkpt>
      <trkpt lat="43.33791" lon="-0.53816">
        <ele>127.99</ele>
        <time>2012-05-15T14:38:12Z</time>
      </trkpt>
      <trkpt lat="43.33802" lon="-0.53831">
        <ele>127.99</ele>
        <time>2012-05-15T14:38:23Z</time>
      </trkpt>
      <trkpt lat="43.33813" lon="-0.53845">
        <ele>127.51</ele>
        <time>2012-05-15T14:38:35Z</time>
      </trkpt>
      <trkpt lat="43.33823" lon="-0.53855">
        <ele>127.51</ele>
        <time>2012-05-15T14:38:45Z</time>
      </trkpt>
      <trkpt lat="43.33834" lon="-0.53861">
        <ele>126.07</ele>
        <time>2012-05-15T14:38:57Z</time>
      </trkpt>
      <trkpt lat="43.33845" lon="-0.53869">
        <ele>125.11</ele>
        <time>2012-05-15T14:39:07Z</time>
      </trkpt>
      <trkpt lat="43.33853" lon="-0.53876">
        <ele>125.11</ele>
        <time>2012-05-15T14:39:16Z</time>
      </trkpt>
      <trkpt lat="43.33866" lon="-0.53881">
        <ele>125.59</ele>
        <time>2012-05-15T14:39:31Z</time>
      </trkpt>
      <trkpt lat="43.33882" lon="-0.53887">
        <ele>125.59</ele>
        <time>2012-05-15T14:39:40Z</time>
      </trkpt>
      <trkpt lat="43.33894" lon="-0.53892">
        <ele>125.59</ele>
        <time>2012-05-15T14:39:51Z</time>
      </trkpt>
      <trkpt lat="43.33913" lon="-0.53901">
        <ele>125.59</ele>
        <time>2012-05-15T14:40:02Z</time>
      </trkpt>
      <trkpt lat="43.33925" lon="-0.53911">
        <ele>125.59</ele>
        <time>2012-05-15T14:40:11Z</time>
      </trkpt>
      <trkpt lat="43.33937" lon="-0.53926">
        <ele>125.59</ele>
        <time>2012-05-15T14:40:20Z</time>
      </trkpt>
      <trkpt lat="43.33948" lon="-0.53935">
        <ele>125.59</ele>
        <time>2012-05-15T14:40:29Z</time>
      </trkpt>
      <trkpt lat="43.33957" lon="-0.53943">
        <ele>125.59</ele>
        <time>2012-05-15T14:40:38Z</time>
      </trkpt>
      <trkpt lat="43.33967" lon="-0.5395">
        <ele>125.59</ele>
        <time>2012-05-15T14:40:49Z</time>
      </trkpt>
      <trkpt lat="43.3398" lon="-0.5396">
        <ele>126.07</ele>
        <time>2012-05-15T14:40:59Z</time>
      </trkpt>
      <trkpt lat="43.33991" lon="-0.53969">
        <ele>127.51</ele>
        <time>2012-05-15T14:41:09Z</time>
      </trkpt>
      <trkpt lat="43.34002" lon="-0.5398">
        <ele>127.03</ele>
        <time>2012-05-15T14:41:19Z</time>
      </trkpt>
      <trkpt lat="43.34016" lon="-0.5399">
        <ele>127.03</ele>
        <time>2012-05-15T14:41:30Z</time>
      </trkpt>
      <trkpt lat="43.34028" lon="-0.54012">
        <ele>127.99</ele>
        <time>2012-05-15T14:41:42Z</time>
      </trkpt>
      <trkpt lat="43.34038" lon="-0.54027">
        <ele>127.51</ele>
        <time>2012-05-15T14:41:52Z</time>
      </trkpt>
      <trkpt lat="43.34047" lon="-0.54039">
        <ele>127.03</ele>
        <time>2012-05-15T14:42:01Z</time>
      </trkpt>
      <trkpt lat="43.34055" lon="-0.54049">
        <ele>127.03</ele>
        <time>2012-05-15T14:42:10Z</time>
      </trkpt>
      <trkpt lat="43.34063" lon="-0.54059">
        <ele>126.55</ele>
        <time>2012-05-15T14:42:18Z</time>
      </trkpt>
      <trkpt lat="43.34069" lon="-0.54073">
        <ele>126.55</ele>
        <time>2012-05-15T14:42:26Z</time>
      </trkpt>
      <trkpt lat="43.34075" lon="-0.54085">
        <ele>127.03</ele>
        <time>2012-05-15T14:42:33Z</time>
      </trkpt>
      <trkpt lat="43.34082" lon="-0.54099">
        <ele>126.55</ele>
        <time>2012-05-15T14:42:41Z</time>
      </trkpt>
      <trkpt lat="43.3409" lon="-0.54111">
        <ele>126.55</ele>
        <time>2012-05-15T14:42:49Z</time>
      </trkpt>
      <trkpt lat="43.34098" lon="-0.54123">
        <ele>127.03</ele>
        <time>2012-05-15T14:42:58Z</time>
      </trkpt>
      <trkpt lat="43.34106" lon="-0.54134">
        <ele>126.07</ele>
        <time>2012-05-15T14:43:08Z</time>
      </trkpt>
      <trkpt lat="43.34115" lon="-0.54145">
        <ele>126.07</ele>
        <time>2012-05-15T14:43:19Z</time>
      </trkpt>
      <trkpt lat="43.34128" lon="-0.54159">
        <ele>125.11</ele>
        <time>2012-05-15T14:43:30Z</time>
      </trkpt>
      <trkpt lat="43.3414" lon="-0.54171">
        <ele>123.67</ele>
        <time>2012-05-15T14:43:43Z</time>
      </trkpt>
      <trkpt lat="43.34153" lon="-0.54182">
        <ele>122.71</ele>
        <time>2012-05-15T14:43:54Z</time>
      </trkpt>
      <trkpt lat="43.34166" lon="-0.5419">
        <ele>122.71</ele>
        <time>2012-05-15T14:44:03Z</time>
      </trkpt>
      <trkpt lat="43.34179" lon="-0.542">
        <ele>122.22</ele>
        <time>2012-05-15T14:44:13Z</time>
      </trkpt>
      <trkpt lat="43.34191" lon="-0.54204">
        <ele>122.22</ele>
        <time>2012-05-15T14:44:23Z</time>
      </trkpt>
      <trkpt lat="43.34202" lon="-0.54213">
        <ele>121.74</ele>
        <time>2012-05-15T14:44:33Z</time>
      </trkpt>
      <trkpt lat="43.34217" lon="-0.5422">
        <ele>121.26</ele>
        <time>2012-05-15T14:44:44Z</time>
      </trkpt>
      <trkpt lat="43.34229" lon="-0.54225">
        <ele>121.74</ele>
        <time>2012-05-15T14:44:56Z</time>
      </trkpt>
      <trkpt lat="43.34241" lon="-0.54233">
        <ele>121.74</ele>
        <time>2012-05-15T14:45:06Z</time>
      </trkpt>
      <trkpt lat="43.34252" lon="-0.54248">
        <ele>122.22</ele>
        <time>2012-05-15T14:45:15Z</time>
      </trkpt>
      <trkpt lat="43.34259" lon="-0.5426">
        <ele>122.71</ele>
        <time>2012-05-15T14:45:24Z</time>
      </trkpt>
      <trkpt lat="43.34268" lon="-0.5428">
        <ele>122.71</ele>
        <time>2012-05-15T14:45:34Z</time>
      </trkpt>
      <trkpt lat="43.34279" lon="-0.54297">
        <ele>122.71</ele>
        <time>2012-05-15T14:45:43Z</time>
      </trkpt>
      <trkpt lat="43.34286" lon="-0.54312">
        <ele>123.67</ele>
        <time>2012-05-15T14:45:54Z</time>
      </trkpt>
      <trkpt lat="43.34296" lon="-0.54329">
        <ele>123.67</ele>
        <time>2012-05-15T14:46:06Z</time>
      </trkpt>
      <trkpt lat="43.34304" lon="-0.54344">
        <ele>123.67</ele>
        <time>2012-05-15T14:46:16Z</time>
      </trkpt>
      <trkpt lat="43.3431" lon="-0.54355">
        <ele>124.15</ele>
        <time>2012-05-15T14:46:30Z</time>
      </trkpt>
      <trkpt lat="43.34314" lon="-0.54371">
        <ele>122.71</ele>
        <time>2012-05-15T14:46:58Z</time>
      </trkpt>
      <trkpt lat="43.34317" lon="-0.54383">
        <ele>122.22</ele>
        <time>2012-05-15T14:47:06Z</time>
      </trkpt>
      <trkpt lat="43.34318" lon="-0.54397">
        <ele>123.19</ele>
        <time>2012-05-15T14:47:14Z</time>
      </trkpt>
      <trkpt lat="43.34321" lon="-0.54411">
        <ele>122.71</ele>
        <time>2012-05-15T14:47:22Z</time>
      </trkpt>
      <trkpt lat="43.34326" lon="-0.54423">
        <ele>122.71</ele>
        <time>2012-05-15T14:47:29Z</time>
      </trkpt>
      <trkpt lat="43.34333" lon="-0.54434">
        <ele>122.71</ele>
        <time>2012-05-15T14:47:36Z</time>
      </trkpt>
      <trkpt lat="43.3434" lon="-0.54443">
        <ele>122.22</ele>
        <time>2012-05-15T14:47:43Z</time>
      </trkpt>
      <trkpt lat="43.34348" lon="-0.54451">
        <ele>122.22</ele>
        <time>2012-05-15T14:47:51Z</time>
      </trkpt>
      <trkpt lat="43.34357" lon="-0.54459">
        <ele>122.22</ele>
        <time>2012-05-15T14:47:59Z</time>
      </trkpt>
      <trkpt lat="43.34365" lon="-0.54471">
        <ele>122.22</ele>
        <time>2012-05-15T14:48:07Z</time>
      </trkpt>
      <trkpt lat="43.34372" lon="-0.54479">
        <ele>123.19</ele>
        <time>2012-05-15T14:48:15Z</time>
      </trkpt>
      <trkpt lat="43.34381" lon="-0.54488">
        <ele>122.22</ele>
        <time>2012-05-15T14:48:23Z</time>
      </trkpt>
      <trkpt lat="43.3439" lon="-0.54493">
        <ele>122.22</ele>
        <time>2012-05-15T14:48:30Z</time>
      </trkpt>
      <trkpt lat="43.34399" lon="-0.545">
        <ele>123.19</ele>
        <time>2012-05-15T14:48:37Z</time>
      </trkpt>
      <trkpt lat="43.34408" lon="-0.54504">
        <ele>124.15</ele>
        <time>2012-05-15T14:48:44Z</time>
      </trkpt>
      <trkpt lat="43.3442" lon="-0.5451">
        <ele>123.19</ele>
        <time>2012-05-15T14:48:52Z</time>
      </trkpt>
      <trkpt lat="43.3443" lon="-0.54509">
        <ele>123.67</ele>
        <time>2012-05-15T14:49:00Z</time>
      </trkpt>
      <trkpt lat="43.34441" lon="-0.5451">
        <ele>123.67</ele>
        <time>2012-05-15T14:49:08Z</time>
      </trkpt>
      <trkpt lat="43.34453" lon="-0.54512">
        <ele>123.19</ele>
        <time>2012-05-15T14:49:17Z</time>
      </trkpt>
      <trkpt lat="43.34464" lon="-0.54518">
        <ele>124.15</ele>
        <time>2012-05-15T14:49:27Z</time>
      </trkpt>
      <trkpt lat="43.34477" lon="-0.54522">
        <ele>124.63</ele>
        <time>2012-05-15T14:49:39Z</time>
      </trkpt>
      <trkpt lat="43.34489" lon="-0.54532">
        <ele>124.63</ele>
        <time>2012-05-15T14:49:51Z</time>
      </trkpt>
      <trkpt lat="43.34503" lon="-0.54541">
        <ele>125.59</ele>
        <time>2012-05-15T14:50:03Z</time>
      </trkpt>
      <trkpt lat="43.34518" lon="-0.54554">
        <ele>126.55</ele>
        <time>2012-05-15T14:50:15Z</time>
      </trkpt>
      <trkpt lat="43.34533" lon="-0.54556">
        <ele>126.55</ele>
        <time>2012-05-15T14:50:25Z</time>
      </trkpt>
      <trkpt lat="43.34543" lon="-0.54555">
        <ele>126.07</ele>
        <time>2012-05-15T14:50:32Z</time>
      </trkpt>
      <trkpt lat="43.34552" lon="-0.54552">
        <ele>126.07</ele>
        <time>2012-05-15T14:50:39Z</time>
      </trkpt>
      <trkpt lat="43.34566" lon="-0.54546">
        <ele>127.51</ele>
        <time>2012-05-15T14:50:50Z</time>
      </trkpt>
      <trkpt lat="43.3458" lon="-0.54557">
        <ele>126.55</ele>
        <time>2012-05-15T14:51:01Z</time>
      </trkpt>
      <trkpt lat="43.34585" lon="-0.5457">
        <ele>126.55</ele>
        <time>2012-05-15T14:51:11Z</time>
      </trkpt>
      <trkpt lat="43.3459" lon="-0.54585">
        <ele>126.55</ele>
        <time>2012-05-15T14:51:20Z</time>
      </trkpt>
      <trkpt lat="43.34591" lon="-0.54607">
        <ele>126.55</ele>
        <time>2012-05-15T14:51:30Z</time>
      </trkpt>
      <trkpt lat="43.34595" lon="-0.54623">
        <ele>126.55</ele>
        <time>2012-05-15T14:51:39Z</time>
      </trkpt>
      <trkpt lat="43.34599" lon="-0.54641">
        <ele>127.51</ele>
        <time>2012-05-15T14:51:48Z</time>
      </trkpt>
      <trkpt lat="43.34606" lon="-0.54657">
        <ele>125.11</ele>
        <time>2012-05-15T14:51:58Z</time>
      </trkpt>
      <trkpt lat="43.34614" lon="-0.54665">
        <ele>128.47</ele>
        <time>2012-05-15T14:52:06Z</time>
      </trkpt>
      <trkpt lat="43.34625" lon="-0.54668">
        <ele>128.95</ele>
        <time>2012-05-15T14:52:14Z</time>
      </trkpt>
      <trkpt lat="43.34636" lon="-0.5467">
        <ele>129.43</ele>
        <time>2012-05-15T14:52:23Z</time>
      </trkpt>
      <trkpt lat="43.34646" lon="-0.54672">
        <ele>130.4</ele>
        <time>2012-05-15T14:52:32Z</time>
      </trkpt>
      <trkpt lat="43.34656" lon="-0.54676">
        <ele>130.4</ele>
        <time>2012-05-15T14:52:46Z</time>
      </trkpt>
      <trkpt lat="43.34662" lon="-0.54684">
        <ele>128.95</ele>
        <time>2012-05-15T14:53:00Z</time>
      </trkpt>
      <trkpt lat="43.34672" lon="-0.54688">
        <ele>129.43</ele>
        <time>2012-05-15T14:55:38Z</time>
      </trkpt>
      <trkpt lat="43.34681" lon="-0.54692">
        <ele>128.95</ele>
        <time>2012-05-15T14:57:43Z</time>
      </trkpt>
      <trkpt lat="43.34689" lon="-0.54701">
        <ele>128.47</ele>
        <time>2012-05-15T14:57:53Z</time>
      </trkpt>
      <trkpt lat="43.34699" lon="-0.54712">
        <ele>128.95</ele>
        <time>2012-05-15T14:58:04Z</time>
      </trkpt>
      <trkpt lat="43.3471" lon="-0.5472">
        <ele>129.43</ele>
        <time>2012-05-15T14:58:14Z</time>
      </trkpt>
      <trkpt lat="43.34722" lon="-0.54725">
        <ele>128.95</ele>
        <time>2012-05-15T14:58:24Z</time>
      </trkpt>
      <trkpt lat="43.34731" lon="-0.54731">
        <ele>129.92</ele>
        <time>2012-05-15T14:58:33Z</time>
      </trkpt>
      <trkpt lat="43.3474" lon="-0.54741">
        <ele>130.4</ele>
        <time>2012-05-15T14:58:42Z</time>
      </trkpt>
      <trkpt lat="43.34748" lon="-0.54751">
        <ele>129.92</ele>
        <time>2012-05-15T14:58:50Z</time>
      </trkpt>
      <trkpt lat="43.34755" lon="-0.54759">
        <ele>128.95</ele>
        <time>2012-05-15T14:58:58Z</time>
      </trkpt>
      <trkpt lat="43.34763" lon="-0.54769">
        <ele>128.95</ele>
        <time>2012-05-15T14:59:06Z</time>
      </trkpt>
      <trkpt lat="43.3477" lon="-0.54779">
        <ele>127.51</ele>
        <time>2012-05-15T14:59:15Z</time>
      </trkpt>
      <trkpt lat="43.34778" lon="-0.54788">
        <ele>126.55</ele>
        <time>2012-05-15T14:59:23Z</time>
      </trkpt>
      <trkpt lat="43.34786" lon="-0.54799">
        <ele>125.59</ele>
        <time>2012-05-15T14:59:31Z</time>
      </trkpt>
      <trkpt lat="43.34794" lon="-0.54809">
        <ele>125.11</ele>
        <time>2012-05-15T14:59:39Z</time>
      </trkpt>
      <trkpt lat="43.34802" lon="-0.54818">
        <ele>124.63</ele>
        <time>2012-05-15T14:59:47Z</time>
      </trkpt>
      <trkpt lat="43.34811" lon="-0.54829">
        <ele>123.67</ele>
        <time>2012-05-15T14:59:55Z</time>
      </trkpt>
      <trkpt lat="43.34818" lon="-0.5484">
        <ele>124.15</ele>
        <time>2012-05-15T15:00:02Z</time>
      </trkpt>
      <trkpt lat="43.34824" lon="-0.54849">
        <ele>124.15</ele>
        <time>2012-05-15T15:00:09Z</time>
      </trkpt>
      <trkpt lat="43.3483" lon="-0.5486">
        <ele>125.11</ele>
        <time>2012-05-15T15:00:16Z</time>
      </trkpt>
      <trkpt lat="43.34836" lon="-0.54871">
        <ele>125.59</ele>
        <time>2012-05-15T15:00:24Z</time>
      </trkpt>
      <trkpt lat="43.34844" lon="-0.5488">
        <ele>125.59</ele>
        <time>2012-05-15T15:00:32Z</time>
      </trkpt>
      <trkpt lat="43.34852" lon="-0.54887">
        <ele>126.07</ele>
        <time>2012-05-15T15:00:39Z</time>
      </trkpt>
      <trkpt lat="43.34863" lon="-0.5489">
        <ele>125.59</ele>
        <time>2012-05-15T15:00:47Z</time>
      </trkpt>
      <trkpt lat="43.34872" lon="-0.54892">
        <ele>126.07</ele>
        <time>2012-05-15T15:00:55Z</time>
      </trkpt>
      <trkpt lat="43.34883" lon="-0.54893">
        <ele>125.59</ele>
        <time>2012-05-15T15:01:04Z</time>
      </trkpt>
      <trkpt lat="43.34894" lon="-0.54897">
        <ele>126.55</ele>
        <time>2012-05-15T15:01:14Z</time>
      </trkpt>
      <trkpt lat="43.34906" lon="-0.54901">
        <ele>126.55</ele>
        <time>2012-05-15T15:01:23Z</time>
      </trkpt>
      <trkpt lat="43.34918" lon="-0.54906">
        <ele>126.07</ele>
        <time>2012-05-15T15:01:32Z</time>
      </trkpt>
      <trkpt lat="43.34927" lon="-0.54911">
        <ele>125.59</ele>
        <time>2012-05-15T15:01:41Z</time>
      </trkpt>
      <trkpt lat="43.34938" lon="-0.54922">
        <ele>125.59</ele>
        <time>2012-05-15T15:01:52Z</time>
      </trkpt>
      <trkpt lat="43.34948" lon="-0.54936">
        <ele>125.11</ele>
        <time>2012-05-15T15:02:02Z</time>
      </trkpt>
      <trkpt lat="43.34956" lon="-0.54948">
        <ele>123.67</ele>
        <time>2012-05-15T15:02:11Z</time>
      </trkpt>
      <trkpt lat="43.34962" lon="-0.5496">
        <ele>123.19</ele>
        <time>2012-05-15T15:02:21Z</time>
      </trkpt>
      <trkpt lat="43.34965" lon="-0.54971">
        <ele>122.71</ele>
        <time>2012-05-15T15:02:29Z</time>
      </trkpt>
      <trkpt lat="43.34971" lon="-0.54982">
        <ele>123.19</ele>
        <time>2012-05-15T15:02:36Z</time>
      </trkpt>
      <trkpt lat="43.34978" lon="-0.54994">
        <ele>122.71</ele>
        <time>2012-05-15T15:02:44Z</time>
      </trkpt>
      <trkpt lat="43.34986" lon="-0.55005">
        <ele>122.71</ele>
        <time>2012-05-15T15:02:52Z</time>
      </trkpt>
      <trkpt lat="43.34993" lon="-0.55018">
        <ele>122.71</ele>
        <time>2012-05-15T15:03:00Z</time>
      </trkpt>
      <trkpt lat="43.35" lon="-0.55027">
        <ele>123.19</ele>
        <time>2012-05-15T15:03:07Z</time>
      </trkpt>
      <trkpt lat="43.35007" lon="-0.55037">
        <ele>123.19</ele>
        <time>2012-05-15T15:03:15Z</time>
      </trkpt>
      <trkpt lat="43.35015" lon="-0.55045">
        <ele>122.71</ele>
        <time>2012-05-15T15:03:23Z</time>
      </trkpt>
      <trkpt lat="43.35022" lon="-0.55056">
        <ele>123.19</ele>
        <time>2012-05-15T15:03:30Z</time>
      </trkpt>
      <trkpt lat="43.3503" lon="-0.55066">
        <ele>123.19</ele>
        <time>2012-05-15T15:03:37Z</time>
      </trkpt>
      <trkpt lat="43.35038" lon="-0.55073">
        <ele>123.67</ele>
        <time>2012-05-15T15:03:44Z</time>
      </trkpt>
      <trkpt lat="43.35045" lon="-0.5508">
        <ele>124.15</ele>
        <time>2012-05-15T15:03:51Z</time>
      </trkpt>
      <trkpt lat="43.35056" lon="-0.55085">
        <ele>123.19</ele>
        <time>2012-05-15T15:03:59Z</time>
      </trkpt>
      <trkpt lat="43.35066" lon="-0.55088">
        <ele>124.15</ele>
        <time>2012-05-15T15:04:07Z</time>
      </trkpt>
      <trkpt lat="43.35075" lon="-0.55092">
        <ele>124.15</ele>
        <time>2012-05-15T15:04:15Z</time>
      </trkpt>
      <trkpt lat="43.35086" lon="-0.55099">
        <ele>123.19</ele>
        <time>2012-05-15T15:04:23Z</time>
      </trkpt>
      <trkpt lat="43.35095" lon="-0.55102">
        <ele>124.15</ele>
        <time>2012-05-15T15:04:31Z</time>
      </trkpt>
      <trkpt lat="43.35104" lon="-0.55105">
        <ele>124.15</ele>
        <time>2012-05-15T15:04:39Z</time>
      </trkpt>
      <trkpt lat="43.35116" lon="-0.5511">
        <ele>124.15</ele>
        <time>2012-05-15T15:04:48Z</time>
      </trkpt>
      <trkpt lat="43.35128" lon="-0.55115">
        <ele>124.15</ele>
        <time>2012-05-15T15:04:58Z</time>
      </trkpt>
      <trkpt lat="43.35139" lon="-0.55118">
        <ele>124.15</ele>
        <time>2012-05-15T15:05:06Z</time>
      </trkpt>
      <trkpt lat="43.35148" lon="-0.55124">
        <ele>124.63</ele>
        <time>2012-05-15T15:05:13Z</time>
      </trkpt>
      <trkpt lat="43.35157" lon="-0.5513">
        <ele>124.15</ele>
        <time>2012-05-15T15:05:22Z</time>
      </trkpt>
      <trkpt lat="43.35166" lon="-0.55142">
        <ele>124.15</ele>
        <time>2012-05-15T15:05:31Z</time>
      </trkpt>
      <trkpt lat="43.35172" lon="-0.55154">
        <ele>124.15</ele>
        <time>2012-05-15T15:05:40Z</time>
      </trkpt>
      <trkpt lat="43.35178" lon="-0.55168">
        <ele>123.67</ele>
        <time>2012-05-15T15:05:50Z</time>
      </trkpt>
      <trkpt lat="43.35189" lon="-0.55184">
        <ele>122.22</ele>
        <time>2012-05-15T15:06:01Z</time>
      </trkpt>
      <trkpt lat="43.35197" lon="-0.55197">
        <ele>121.74</ele>
        <time>2012-05-15T15:06:10Z</time>
      </trkpt>
      <trkpt lat="43.35206" lon="-0.55212">
        <ele>121.26</ele>
        <time>2012-05-15T15:06:19Z</time>
      </trkpt>
      <trkpt lat="43.35212" lon="-0.55225">
        <ele>121.26</ele>
        <time>2012-05-15T15:06:27Z</time>
      </trkpt>
      <trkpt lat="43.35216" lon="-0.55238">
        <ele>120.78</ele>
        <time>2012-05-15T15:06:35Z</time>
      </trkpt>
      <trkpt lat="43.35219" lon="-0.55253">
        <ele>120.78</ele>
        <time>2012-05-15T15:06:44Z</time>
      </trkpt>
      <trkpt lat="43.3522" lon="-0.55269">
        <ele>120.78</ele>
        <time>2012-05-15T15:06:52Z</time>
      </trkpt>
      <trkpt lat="43.35221" lon="-0.55285">
        <ele>119.34</ele>
        <time>2012-05-15T15:07:00Z</time>
      </trkpt>
      <trkpt lat="43.35221" lon="-0.553">
        <ele>119.82</ele>
        <time>2012-05-15T15:07:08Z</time>
      </trkpt>
      <trkpt lat="43.35222" lon="-0.55315">
        <ele>119.34</ele>
        <time>2012-05-15T15:07:16Z</time>
      </trkpt>
      <trkpt lat="43.35222" lon="-0.5533">
        <ele>119.82</ele>
        <time>2012-05-15T15:07:24Z</time>
      </trkpt>
      <trkpt lat="43.35225" lon="-0.55346">
        <ele>119.34</ele>
        <time>2012-05-15T15:07:33Z</time>
      </trkpt>
      <trkpt lat="43.35228" lon="-0.55363">
        <ele>118.86</ele>
        <time>2012-05-15T15:07:43Z</time>
      </trkpt>
      <trkpt lat="43.35223" lon="-0.55375">
        <ele>118.86</ele>
        <time>2012-05-15T15:07:52Z</time>
      </trkpt>
      <trkpt lat="43.35214" lon="-0.5538">
        <ele>117.9</ele>
        <time>2012-05-15T15:08:01Z</time>
      </trkpt>
      <trkpt lat="43.35205" lon="-0.55382">
        <ele>117.42</ele>
        <time>2012-05-15T15:08:09Z</time>
      </trkpt>
      <trkpt lat="43.35195" lon="-0.55383">
        <ele>117.42</ele>
        <time>2012-05-15T15:08:17Z</time>
      </trkpt>
      <trkpt lat="43.35183" lon="-0.5538">
        <ele>117.42</ele>
        <time>2012-05-15T15:08:26Z</time>
      </trkpt>
      <trkpt lat="43.35174" lon="-0.55375">
        <ele>117.9</ele>
        <time>2012-05-15T15:08:36Z</time>
      </trkpt>
      <trkpt lat="43.35168" lon="-0.55367">
        <ele>117.42</ele>
        <time>2012-05-15T15:08:45Z</time>
      </trkpt>
      <trkpt lat="43.35159" lon="-0.5536">
        <ele>117.42</ele>
        <time>2012-05-15T15:08:53Z</time>
      </trkpt>
      <trkpt lat="43.3515" lon="-0.55351">
        <ele>117.9</ele>
        <time>2012-05-15T15:09:02Z</time>
      </trkpt>
      <trkpt lat="43.35141" lon="-0.55342">
        <ele>117.9</ele>
        <time>2012-05-15T15:09:10Z</time>
      </trkpt>
      <trkpt lat="43.35132" lon="-0.55333">
        <ele>118.38</ele>
        <time>2012-05-15T15:09:18Z</time>
      </trkpt>
      <trkpt lat="43.35124" lon="-0.55325">
        <ele>117.9</ele>
        <time>2012-05-15T15:09:25Z</time>
      </trkpt>
      <trkpt lat="43.35115" lon="-0.55317">
        <ele>118.38</ele>
        <time>2012-05-15T15:09:33Z</time>
      </trkpt>
      <trkpt lat="43.35108" lon="-0.5531">
        <ele>117.42</ele>
        <time>2012-05-15T15:09:41Z</time>
      </trkpt>
      <trkpt lat="43.35099" lon="-0.55302">
        <ele>117.9</ele>
        <time>2012-05-15T15:09:50Z</time>
      </trkpt>
      <trkpt lat="43.35091" lon="-0.55293">
        <ele>118.38</ele>
        <time>2012-05-15T15:09:58Z</time>
      </trkpt>
      <trkpt lat="43.35083" lon="-0.55285">
        <ele>118.38</ele>
        <time>2012-05-15T15:10:06Z</time>
      </trkpt>
      <trkpt lat="43.35074" lon="-0.55278">
        <ele>118.38</ele>
        <time>2012-05-15T15:10:13Z</time>
      </trkpt>
      <trkpt lat="43.35067" lon="-0.55271">
        <ele>118.86</ele>
        <time>2012-05-15T15:10:20Z</time>
      </trkpt>
      <trkpt lat="43.3506" lon="-0.55263">
        <ele>119.34</ele>
        <time>2012-05-15T15:10:27Z</time>
      </trkpt>
      <trkpt lat="43.35053" lon="-0.55256">
        <ele>118.86</ele>
        <time>2012-05-15T15:10:34Z</time>
      </trkpt>
      <trkpt lat="43.35044" lon="-0.5525">
        <ele>118.86</ele>
        <time>2012-05-15T15:10:42Z</time>
      </trkpt>
      <trkpt lat="43.35037" lon="-0.55243">
        <ele>119.34</ele>
        <time>2012-05-15T15:10:49Z</time>
      </trkpt>
      <trkpt lat="43.35028" lon="-0.55235">
        <ele>118.86</ele>
        <time>2012-05-15T15:10:57Z</time>
      </trkpt>
      <trkpt lat="43.35019" lon="-0.5523">
        <ele>118.86</ele>
        <time>2012-05-15T15:11:04Z</time>
      </trkpt>
      <trkpt lat="43.35009" lon="-0.55223">
        <ele>118.86</ele>
        <time>2012-05-15T15:11:12Z</time>
      </trkpt>
      <trkpt lat="43.34999" lon="-0.55216">
        <ele>118.86</ele>
        <time>2012-05-15T15:11:20Z</time>
      </trkpt>
      <trkpt lat="43.34988" lon="-0.55207">
        <ele>118.38</ele>
        <time>2012-05-15T15:11:28Z</time>
      </trkpt>
      <trkpt lat="43.34978" lon="-0.55203">
        <ele>118.38</ele>
        <time>2012-05-15T15:11:35Z</time>
      </trkpt>
      <trkpt lat="43.34967" lon="-0.55199">
        <ele>118.38</ele>
        <time>2012-05-15T15:11:43Z</time>
      </trkpt>
      <trkpt lat="43.34958" lon="-0.55204">
        <ele>118.38</ele>
        <time>2012-05-15T15:11:50Z</time>
      </trkpt>
      <trkpt lat="43.34949" lon="-0.55216">
        <ele>118.38</ele>
        <time>2012-05-15T15:11:58Z</time>
      </trkpt>
      <trkpt lat="43.34945" lon="-0.55233">
        <ele>119.34</ele>
        <time>2012-05-15T15:12:07Z</time>
      </trkpt>
      <trkpt lat="43.34943" lon="-0.55246">
        <ele>119.34</ele>
        <time>2012-05-15T15:12:15Z</time>
      </trkpt>
      <trkpt lat="43.34942" lon="-0.55261">
        <ele>119.82</ele>
        <time>2012-05-15T15:12:23Z</time>
      </trkpt>
      <trkpt lat="43.34939" lon="-0.55274">
        <ele>120.78</ele>
        <time>2012-05-15T15:12:32Z</time>
      </trkpt>
      <trkpt lat="43.34939" lon="-0.55285">
        <ele>124.15</ele>
        <time>2012-05-15T15:12:42Z</time>
      </trkpt>
      <trkpt lat="43.34938" lon="-0.55287">
        <ele>120.3</ele>
        <time>2012-05-15T15:13:53Z</time>
      </trkpt>
    </trkseg>
  </trk>
</gpx>